<?xml version='1.0' encoding='UTF-8'?><gpx version="1.1" creator="JPX - https://github.com/jenetics/jpx" xmlns="http://www.topografix.com/GPX/1/1"><trk><trkseg><trkpt lat="44.158763859004196" lon="10.028871906209917"><ele>480.99999999999994</ele><time>2026-03-29T15:55:56.999Z</time></trkpt><trkpt lat="44.15874935913538" lon="10.028961126781653"><ele>481.0</ele><time>2026-03-29T15:56:01.999Z</time></trkpt><trkpt lat="44.15868373464354" lon="10.02893869983647"><ele>480.99999999999994</ele><time>2026-03-29T15:56:04.999Z</time></trkpt><trkpt lat="44.15862023144364" lon="10.029004637106071"><ele>480.99999999999994</ele><time>2026-03-29T15:56:07.999Z</time></trkpt><trkpt lat="44.158535515286424" lon="10.02901627411295"><ele>481.0</ele><time>2026-03-29T15:56:10.999Z</time></trkpt><trkpt lat="44.15845545767498" lon="10.029004281144438"><ele>480.99999999999994</ele><time>2026-03-29T15:56:17.999Z</time></trkpt><trkpt lat="44.158404880197956" lon="10.02906207001494"><ele>480.99999999999994</ele><time>2026-03-29T15:56:21Z</time></trkpt><trkpt lat="44.15837722692754" lon="10.029182151342981"><ele>480.99999999999994</ele><time>2026-03-29T15:56:24Z</time></trkpt><trkpt lat="44.15833457501702" lon="10.029249249168458"><ele>481.0</ele><time>2026-03-29T15:56:27Z</time></trkpt><trkpt lat="44.15836483646707" lon="10.02916594574179"><ele>480.99999999999994</ele><time>2026-03-29T15:58:38Z</time></trkpt><trkpt lat="44.15840335259566" lon="10.029082425371843"><ele>480.99999999999994</ele><time>2026-03-29T15:58:46Z</time></trkpt><trkpt lat="44.158481287231595" lon="10.029047215703347"><ele>481.0</ele><time>2026-03-29T15:58:51Z</time></trkpt><trkpt lat="44.15854602564412" lon="10.028996531771789"><ele>480.99999999999994</ele><time>2026-03-29T15:58:55Z</time></trkpt><trkpt lat="44.158620303880326" lon="10.028942510137938"><ele>480.99999999999994</ele><time>2026-03-29T15:58:59Z</time></trkpt><trkpt lat="44.15871145609462" lon="10.02896652435337"><ele>481.00000000000006</ele><time>2026-03-29T15:59:02Z</time></trkpt><trkpt lat="44.158798881773116" lon="10.028999228876314"><ele>481.0</ele><time>2026-03-29T15:59:04Z</time></trkpt><trkpt lat="44.15887211061206" lon="10.029095799682494"><ele>481.0</ele><time>2026-03-29T15:59:09Z</time></trkpt><trkpt lat="44.15890781888836" lon="10.029172162214127"><ele>481.0</ele><time>2026-03-29T15:59:10Z</time></trkpt><trkpt lat="44.15894892973049" lon="10.02923938963436"><ele>481.00000000000006</ele><time>2026-03-29T15:59:12Z</time></trkpt><trkpt lat="44.1589850114249" lon="10.029323826285546"><ele>481.0</ele><time>2026-03-29T15:59:15Z</time></trkpt><trkpt lat="44.159012104766056" lon="10.029405274725423"><ele>481.42857142857133</ele><time>2026-03-29T15:59:18Z</time></trkpt><trkpt lat="44.15905441553149" lon="10.029493290447036"><ele>481.85714285714283</ele><time>2026-03-29T15:59:23Z</time></trkpt><trkpt lat="44.15901755102072" lon="10.029568064499433"><ele>482.2857142857142</ele><time>2026-03-29T15:59:39Z</time></trkpt><trkpt lat="44.15899026647602" lon="10.029477396405664"><ele>482.71428571428567</ele><time>2026-03-29T15:59:51.999Z</time></trkpt><trkpt lat="44.159073375328425" lon="10.029448157837706"><ele>483.1428571428571</ele><time>2026-03-29T16:00:18.999Z</time></trkpt><trkpt lat="44.159111458664285" lon="10.029536412010692"><ele>483.57142857142856</ele><time>2026-03-29T16:00:22.999Z</time></trkpt><trkpt lat="44.159164716806934" lon="10.029594885471738"><ele>484.0</ele><time>2026-03-29T16:00:25.999Z</time></trkpt><trkpt lat="44.15920767003235" lon="10.029661545371606"><ele>481.85714285714283</ele><time>2026-03-29T16:00:29.999Z</time></trkpt><trkpt lat="44.15924619893795" lon="10.029737457234894"><ele>479.71428571428567</ele><time>2026-03-29T16:00:33Z</time></trkpt><trkpt lat="44.15928863460099" lon="10.029838660639752"><ele>477.57142857142856</ele><time>2026-03-29T16:00:37Z</time></trkpt><trkpt lat="44.15932274192191" lon="10.029930444617829"><ele>475.42857142857144</ele><time>2026-03-29T16:00:39Z</time></trkpt><trkpt lat="44.15934336324429" lon="10.030014055230394"><ele>473.2857142857143</ele><time>2026-03-29T16:00:41Z</time></trkpt><trkpt lat="44.15936906753975" lon="10.030122013916161"><ele>471.1428571428571</ele><time>2026-03-29T16:00:44Z</time></trkpt><trkpt lat="44.15938103816572" lon="10.030224081263079"><ele>469.0</ele><time>2026-03-29T16:00:46Z</time></trkpt><trkpt lat="44.159387830928715" lon="10.030322270141728"><ele>469.0</ele><time>2026-03-29T16:00:53Z</time></trkpt><trkpt lat="44.15937985566807" lon="10.030416235386742"><ele>469.0</ele><time>2026-03-29T16:00:56Z</time></trkpt><trkpt lat="44.159378663506196" lon="10.03052894586162"><ele>469.0</ele><time>2026-03-29T16:01:00Z</time></trkpt><trkpt lat="44.15941131875116" lon="10.030625928241605"><ele>469.0</ele><time>2026-03-29T16:01:03Z</time></trkpt><trkpt lat="44.159459665476675" lon="10.030688980495217"><ele>469.0</ele><time>2026-03-29T16:01:07Z</time></trkpt><trkpt lat="44.1595114295741" lon="10.030759518754287"><ele>469.0</ele><time>2026-03-29T16:01:10Z</time></trkpt><trkpt lat="44.15955334624712" lon="10.030839219874105"><ele>469.0</ele><time>2026-03-29T16:01:13Z</time></trkpt><trkpt lat="44.15961936512169" lon="10.030952245863853"><ele>469.00000000000006</ele><time>2026-03-29T16:01:16Z</time></trkpt><trkpt lat="44.159653830337554" lon="10.03104202985245"><ele>469.0</ele><time>2026-03-29T16:01:19Z</time></trkpt><trkpt lat="44.15969548283634" lon="10.03114840173258"><ele>469.0</ele><time>2026-03-29T16:01:22Z</time></trkpt><trkpt lat="44.159728643189965" lon="10.031242042996947"><ele>469.0</ele><time>2026-03-29T16:01:24Z</time></trkpt><trkpt lat="44.15973745460811" lon="10.03134046785165"><ele>469.00000000000006</ele><time>2026-03-29T16:01:26Z</time></trkpt><trkpt lat="44.159727844624925" lon="10.031463891963654"><ele>469.0</ele><time>2026-03-29T16:01:28Z</time></trkpt><trkpt lat="44.159713634311736" lon="10.031551393636304"><ele>469.00000000000006</ele><time>2026-03-29T16:01:30Z</time></trkpt><trkpt lat="44.159698083536085" lon="10.031639246355509"><ele>469.0</ele><time>2026-03-29T16:01:32Z</time></trkpt><trkpt lat="44.15966459731023" lon="10.031790777302955"><ele>469.0</ele><time>2026-03-29T16:01:35Z</time></trkpt><trkpt lat="44.15963265507637" lon="10.031869409743926"><ele>469.0</ele><time>2026-03-29T16:01:36Z</time></trkpt><trkpt lat="44.159605824670706" lon="10.031956517544"><ele>469.00000000000006</ele><time>2026-03-29T16:01:38Z</time></trkpt><trkpt lat="44.15959400485395" lon="10.03205442089426"><ele>469.0</ele><time>2026-03-29T16:01:42Z</time></trkpt><trkpt lat="44.159578686506165" lon="10.032166044310783"><ele>467.6666666666667</ele><time>2026-03-29T16:01:47Z</time></trkpt><trkpt lat="44.15956802903099" lon="10.03229109697197"><ele>466.33333333333337</ele><time>2026-03-29T16:01:51Z</time></trkpt><trkpt lat="44.15956368755886" lon="10.032406842428095"><ele>465.0</ele><time>2026-03-29T16:01:55Z</time></trkpt><trkpt lat="44.15955654145188" lon="10.032494402927783"><ele>463.66666666666663</ele><time>2026-03-29T16:02:00.999Z</time></trkpt><trkpt lat="44.159537479108316" lon="10.032582009745461"><ele>462.3333333333333</ele><time>2026-03-29T16:02:03.999Z</time></trkpt><trkpt lat="44.159510856040136" lon="10.032682325497161"><ele>461.0</ele><time>2026-03-29T16:02:06.999Z</time></trkpt><trkpt lat="44.15948953312179" lon="10.032778362772516"><ele>445.0</ele><time>2026-03-29T16:02:09.999Z</time></trkpt><trkpt lat="44.15950315246696" lon="10.032888596073501"><ele>445.0</ele><time>2026-03-29T16:02:13.999Z</time></trkpt><trkpt lat="44.15951012016548" lon="10.033012233687353"><ele>445.0</ele><time>2026-03-29T16:02:17.999Z</time></trkpt><trkpt lat="44.15952788742584" lon="10.033113219449689"><ele>445.0</ele><time>2026-03-29T16:02:20.999Z</time></trkpt><trkpt lat="44.15953940422448" lon="10.033208108023244"><ele>445.0</ele><time>2026-03-29T16:02:24.999Z</time></trkpt></trkseg><trkseg><trkpt lat="44.16056886333747" lon="10.028780512686247"><ele>445.00000000000006</ele><time>2026-03-29T16:08:26Z</time></trkpt><trkpt lat="44.16059202259796" lon="10.028645594977023"><ele>445.0</ele><time>2026-03-29T16:08:28Z</time></trkpt><trkpt lat="44.16065097841679" lon="10.02855442533849"><ele>445.0</ele><time>2026-03-29T16:08:31Z</time></trkpt><trkpt lat="44.16069761380024" lon="10.028480327426315"><ele>445.0</ele><time>2026-03-29T16:08:33Z</time></trkpt><trkpt lat="44.16074434864375" lon="10.028412108062819"><ele>445.00000000000006</ele><time>2026-03-29T16:08:35Z</time></trkpt><trkpt lat="44.16078957709386" lon="10.02830704258952"><ele>445.0</ele><time>2026-03-29T16:08:38Z</time></trkpt><trkpt lat="44.16082705421857" lon="10.028189615982164"><ele>439.83333333333337</ele><time>2026-03-29T16:08:41Z</time></trkpt><trkpt lat="44.160879238919954" lon="10.028107839227355"><ele>434.6666666666667</ele><time>2026-03-29T16:08:44Z</time></trkpt><trkpt lat="44.16093635498597" lon="10.028019049447552"><ele>429.5</ele><time>2026-03-29T16:08:47Z</time></trkpt><trkpt lat="44.16098962915615" lon="10.027919738625402"><ele>424.33333333333337</ele><time>2026-03-29T16:08:50Z</time></trkpt><trkpt lat="44.161026026042364" lon="10.027808106145878"><ele>419.1666666666667</ele><time>2026-03-29T16:08:53Z</time></trkpt><trkpt lat="44.1609859366796" lon="10.027737139743092"><ele>414.0</ele><time>2026-03-29T16:08:56Z</time></trkpt><trkpt lat="44.1609276168136" lon="10.02768265676034"><ele>414.00000000000006</ele><time>2026-03-29T16:08:59Z</time></trkpt><trkpt lat="44.16086422052353" lon="10.027638692048779"><ele>414.0</ele><time>2026-03-29T16:09:02Z</time></trkpt><trkpt lat="44.16079583872739" lon="10.027561932160001"><ele>414.0</ele><time>2026-03-29T16:09:05Z</time></trkpt><trkpt lat="44.16073873027224" lon="10.027493002256287"><ele>414.0</ele><time>2026-03-29T16:09:07.999Z</time></trkpt><trkpt lat="44.160685663151426" lon="10.027435826001366"><ele>414.0</ele><time>2026-03-29T16:09:10.999Z</time></trkpt><trkpt lat="44.16064729007897" lon="10.027362132404846"><ele>414.00000000000006</ele><time>2026-03-29T16:09:16.999Z</time></trkpt><trkpt lat="44.16068023917412" lon="10.027282181449769"><ele>414.0</ele><time>2026-03-29T16:09:35.999Z</time></trkpt><trkpt lat="44.160755384916165" lon="10.027314290709391"><ele>415.1666666666667</ele><time>2026-03-29T16:09:38.999Z</time></trkpt><trkpt lat="44.16083235764007" lon="10.02732003613615"><ele>416.33333333333337</ele><time>2026-03-29T16:09:41.999Z</time></trkpt><trkpt lat="44.16091598713463" lon="10.027323303825417"><ele>417.5</ele><time>2026-03-29T16:09:44.999Z</time></trkpt><trkpt lat="44.16095710420041" lon="10.027247921641244"><ele>418.6666666666667</ele><time>2026-03-29T16:09:47.999Z</time></trkpt><trkpt lat="44.16094046386309" lon="10.027155770585066"><ele>419.83333333333337</ele><time>2026-03-29T16:09:50.999Z</time></trkpt><trkpt lat="44.16088223137636" lon="10.02708593925396"><ele>421.0</ele><time>2026-03-29T16:09:53.999Z</time></trkpt><trkpt lat="44.16080796481739" lon="10.027032807167798"><ele>421.00000000000006</ele><time>2026-03-29T16:09:56.999Z</time></trkpt><trkpt lat="44.160731308227895" lon="10.026978682236898"><ele>421.0</ele><time>2026-03-29T16:09:59.999Z</time></trkpt><trkpt lat="44.160655754029605" lon="10.02691959104053"><ele>421.0</ele><time>2026-03-29T16:10:02.999Z</time></trkpt><trkpt lat="44.160609523178415" lon="10.02684743685716"><ele>421.0</ele><time>2026-03-29T16:10:07Z</time></trkpt><trkpt lat="44.16056957933466" lon="10.026774726547448"><ele>421.00000000000006</ele><time>2026-03-29T16:10:11Z</time></trkpt><trkpt lat="44.160641632805955" lon="10.02674517233793"><ele>421.0</ele><time>2026-03-29T16:10:21Z</time></trkpt><trkpt lat="44.16070682967564" lon="10.026773713756489"><ele>421.00000000000006</ele><time>2026-03-29T16:10:25Z</time></trkpt><trkpt lat="44.16078932829639" lon="10.026752065011923"><ele>421.0</ele><time>2026-03-29T16:10:28Z</time></trkpt><trkpt lat="44.16085722801479" lon="10.026731123649487"><ele>421.0</ele><time>2026-03-29T16:10:31Z</time></trkpt><trkpt lat="44.16089561713332" lon="10.026647552808162"><ele>421.0</ele><time>2026-03-29T16:10:34Z</time></trkpt><trkpt lat="44.16091527957515" lon="10.026558186658127"><ele>421.0</ele><time>2026-03-29T16:10:37Z</time></trkpt><trkpt lat="44.16095374670757" lon="10.026477745281166"><ele>421.00000000000006</ele><time>2026-03-29T16:10:41Z</time></trkpt><trkpt lat="44.16100155055442" lon="10.026418082861289"><ele>421.0</ele><time>2026-03-29T16:10:44Z</time></trkpt><trkpt lat="44.16106802124806" lon="10.026380410716813"><ele>422.8571428571429</ele><time>2026-03-29T16:10:47Z</time></trkpt><trkpt lat="44.16113576321357" lon="10.026337935667266"><ele>424.7142857142857</ele><time>2026-03-29T16:10:51Z</time></trkpt><trkpt lat="44.16120370713549" lon="10.026313300053666"><ele>426.57142857142856</ele><time>2026-03-29T16:10:53Z</time></trkpt><trkpt lat="44.161246824871114" lon="10.02623551494275"><ele>428.42857142857144</ele><time>2026-03-29T16:10:58Z</time></trkpt><trkpt lat="44.161278945714734" lon="10.026147626755586"><ele>430.2857142857143</ele><time>2026-03-29T16:11:02Z</time></trkpt><trkpt lat="44.1612990834399" lon="10.026045316677427"><ele>432.14285714285717</ele><time>2026-03-29T16:11:06Z</time></trkpt><trkpt lat="44.161328998524546" lon="10.025963667662516"><ele>434.0</ele><time>2026-03-29T16:11:10.999Z</time></trkpt><trkpt lat="44.16139176301478" lon="10.02590387356979"><ele>433.99999999999994</ele><time>2026-03-29T16:15:08Z</time></trkpt><trkpt lat="44.161337240881466" lon="10.025983757987202"><ele>434.0</ele><time>2026-03-29T16:16:07.999Z</time></trkpt><trkpt lat="44.16130943715171" lon="10.02611471628352"><ele>434.0</ele><time>2026-03-29T16:16:09.999Z</time></trkpt><trkpt lat="44.16128503369808" lon="10.026196597647528"><ele>434.0</ele><time>2026-03-29T16:16:11.999Z</time></trkpt><trkpt lat="44.16122668956311" lon="10.026258372055011"><ele>433.99999999999994</ele><time>2026-03-29T16:16:16.999Z</time></trkpt><trkpt lat="44.161154817491564" lon="10.026298914866292"><ele>434.0</ele><time>2026-03-29T16:16:20Z</time></trkpt><trkpt lat="44.16109034245836" lon="10.026328694649782"><ele>433.99999999999994</ele><time>2026-03-29T16:16:21Z</time></trkpt><trkpt lat="44.16103207583578" lon="10.026371454686386"><ele>434.0</ele><time>2026-03-29T16:16:23Z</time></trkpt><trkpt lat="44.16097011587376" lon="10.02647468777126"><ele>434.0</ele><time>2026-03-29T16:16:25Z</time></trkpt><trkpt lat="44.160947600897906" lon="10.02657645738283"><ele>434.0</ele><time>2026-03-29T16:16:28Z</time></trkpt><trkpt lat="44.16092504842198" lon="10.026673306297884"><ele>433.99999999999994</ele><time>2026-03-29T16:16:31Z</time></trkpt><trkpt lat="44.1608342439318" lon="10.026715556442378"><ele>434.0</ele><time>2026-03-29T16:16:33Z</time></trkpt><trkpt lat="44.160725161288596" lon="10.026725140586436"><ele>435.2</ele><time>2026-03-29T16:16:35Z</time></trkpt><trkpt lat="44.16063610906837" lon="10.026702477644731"><ele>436.4</ele><time>2026-03-29T16:16:38Z</time></trkpt><trkpt lat="44.16057951245244" lon="10.02683261273873"><ele>437.6</ele><time>2026-03-29T16:16:42Z</time></trkpt><trkpt lat="44.1606518785727" lon="10.026885993504706"><ele>438.8</ele><time>2026-03-29T16:16:44Z</time></trkpt><trkpt lat="44.16072459364356" lon="10.026959861215184"><ele>440.0</ele><time>2026-03-29T16:16:46Z</time></trkpt><trkpt lat="44.16080654180133" lon="10.026999728381984"><ele>436.8333333333333</ele><time>2026-03-29T16:16:47Z</time></trkpt><trkpt lat="44.16086300843315" lon="10.027050993053185"><ele>433.66666666666663</ele><time>2026-03-29T16:16:50Z</time></trkpt><trkpt lat="44.16092803122113" lon="10.027093611974655"><ele>430.5</ele><time>2026-03-29T16:16:52Z</time></trkpt><trkpt lat="44.16097874428933" lon="10.02715529702444"><ele>427.33333333333337</ele><time>2026-03-29T16:16:54Z</time></trkpt><trkpt lat="44.16099671075661" lon="10.027264595646455"><ele>424.1666666666667</ele><time>2026-03-29T16:16:57Z</time></trkpt><trkpt lat="44.16090458278089" lon="10.027333539183306"><ele>421.0</ele><time>2026-03-29T16:17:00Z</time></trkpt><trkpt lat="44.160782474171505" lon="10.027300769063064"><ele>419.83333333333337</ele><time>2026-03-29T16:17:02Z</time></trkpt><trkpt lat="44.1606957480707" lon="10.027294194101486"><ele>418.6666666666667</ele><time>2026-03-29T16:17:05Z</time></trkpt><trkpt lat="44.1606296241781" lon="10.027309994030704"><ele>417.5</ele><time>2026-03-29T16:17:08Z</time></trkpt><trkpt lat="44.16066845825361" lon="10.027398787218976"><ele>416.33333333333337</ele><time>2026-03-29T16:17:13Z</time></trkpt><trkpt lat="44.16074635069624" lon="10.027483657423618"><ele>415.1666666666667</ele><time>2026-03-29T16:17:15Z</time></trkpt><trkpt lat="44.16083443432462" lon="10.027572098362581"><ele>414.0</ele><time>2026-03-29T16:17:18Z</time></trkpt><trkpt lat="44.16091929158596" lon="10.027628388857861"><ele>414.0</ele><time>2026-03-29T16:17:20Z</time></trkpt><trkpt lat="44.160978152509905" lon="10.027663863091151"><ele>414.0</ele><time>2026-03-29T16:17:22Z</time></trkpt><trkpt lat="44.16102480295507" lon="10.027753324660807"><ele>414.0</ele><time>2026-03-29T16:17:25Z</time></trkpt><trkpt lat="44.161002948650356" lon="10.027852545875474"><ele>414.0</ele><time>2026-03-29T16:17:26.999Z</time></trkpt><trkpt lat="44.16097419225558" lon="10.027962322385434"><ele>414.0</ele><time>2026-03-29T16:17:28.999Z</time></trkpt><trkpt lat="44.16091752313481" lon="10.028042178785517"><ele>414.0</ele><time>2026-03-29T16:17:30.999Z</time></trkpt><trkpt lat="44.160858076266436" lon="10.028137603844115"><ele>414.0</ele><time>2026-03-29T16:17:32.999Z</time></trkpt><trkpt lat="44.160806322824335" lon="10.028294092199285"><ele>414.0</ele><time>2026-03-29T16:17:34.999Z</time></trkpt><trkpt lat="44.16075910837538" lon="10.028413909541609"><ele>414.0</ele><time>2026-03-29T16:17:36.999Z</time></trkpt><trkpt lat="44.16070747143911" lon="10.028473043254984"><ele>414.0</ele><time>2026-03-29T16:17:38.999Z</time></trkpt><trkpt lat="44.16067439546203" lon="10.028551530825725"><ele>414.0</ele><time>2026-03-29T16:17:41.999Z</time></trkpt><trkpt lat="44.160589715241265" lon="10.028713284216536"><ele>413.2</ele><time>2026-03-29T16:17:44.999Z</time></trkpt><trkpt lat="44.16057095628209" lon="10.028827046462455"><ele>412.4</ele><time>2026-03-29T16:17:48.999Z</time></trkpt><trkpt lat="44.16063182905852" lon="10.028746504474961"><ele>411.6</ele><time>2026-03-29T16:18:29Z</time></trkpt><trkpt lat="44.16070503218983" lon="10.02864269591251"><ele>410.8</ele><time>2026-03-29T16:18:31Z</time></trkpt><trkpt lat="44.16075925844494" lon="10.028545294258535"><ele>410.0</ele><time>2026-03-29T16:18:33Z</time></trkpt><trkpt lat="44.160894566551555" lon="10.028398729666243"><ele>409.99999999999994</ele><time>2026-03-29T16:18:36Z</time></trkpt><trkpt lat="44.16096481447052" lon="10.028349930645183"><ele>410.0</ele><time>2026-03-29T16:18:38Z</time></trkpt><trkpt lat="44.16104387400627" lon="10.028305439549799"><ele>410.0</ele><time>2026-03-29T16:18:40Z</time></trkpt><trkpt lat="44.16110799055797" lon="10.028273264351556"><ele>410.0</ele><time>2026-03-29T16:18:42Z</time></trkpt><trkpt lat="44.161173350000006" lon="10.02825074692738"><ele>409.99999999999994</ele><time>2026-03-29T16:18:45Z</time></trkpt><trkpt lat="44.16127090167511" lon="10.028291843793907"><ele>410.0</ele><time>2026-03-29T16:18:48Z</time></trkpt><trkpt lat="44.16133954985444" lon="10.02831555877209"><ele>410.0</ele><time>2026-03-29T16:18:51Z</time></trkpt><trkpt lat="44.161412363692435" lon="10.028332894252424"><ele>410.0</ele><time>2026-03-29T16:18:54Z</time></trkpt><trkpt lat="44.16148587192912" lon="10.02835408083875"><ele>410.0</ele><time>2026-03-29T16:18:59Z</time></trkpt><trkpt lat="44.1615535142758" lon="10.028402974958667"><ele>410.0</ele><time>2026-03-29T16:19:02Z</time></trkpt><trkpt lat="44.161617468631384" lon="10.028430219995856"><ele>410.0</ele><time>2026-03-29T16:19:05Z</time></trkpt><trkpt lat="44.1616803023281" lon="10.028420767544066"><ele>410.0</ele><time>2026-03-29T16:19:09Z</time></trkpt><trkpt lat="44.161756859805244" lon="10.028431224699142"><ele>410.0</ele><time>2026-03-29T16:19:13Z</time></trkpt><trkpt lat="44.16182994550988" lon="10.028501359769788"><ele>406.16666666666663</ele><time>2026-03-29T16:19:17Z</time></trkpt><trkpt lat="44.161923061490384" lon="10.028560302147364"><ele>402.3333333333333</ele><time>2026-03-29T16:19:20Z</time></trkpt><trkpt lat="44.16197693020482" lon="10.028607632287109"><ele>398.5</ele><time>2026-03-29T16:19:29Z</time></trkpt><trkpt lat="44.162042973678645" lon="10.028646891707222"><ele>394.66666666666663</ele><time>2026-03-29T16:19:45.999Z</time></trkpt><trkpt lat="44.16212147119176" lon="10.02869003426308"><ele>390.8333333333333</ele><time>2026-03-29T16:19:52.999Z</time></trkpt><trkpt lat="44.162185587864116" lon="10.028759189089609"><ele>387.0</ele><time>2026-03-29T16:19:57.999Z</time></trkpt><trkpt lat="44.16222385271758" lon="10.028851281575085"><ele>387.0</ele><time>2026-03-29T16:20:02.999Z</time></trkpt><trkpt lat="44.16225841645841" lon="10.028938521517201"><ele>387.0</ele><time>2026-03-29T16:20:18.999Z</time></trkpt><trkpt lat="44.162249993002106" lon="10.028840149606971"><ele>387.0</ele><time>2026-03-29T16:20:52Z</time></trkpt><trkpt lat="44.162200254462526" lon="10.028770132681881"><ele>387.0</ele><time>2026-03-29T16:21:06Z</time></trkpt><trkpt lat="44.162144355283594" lon="10.028711127708826"><ele>387.0</ele><time>2026-03-29T16:21:09Z</time></trkpt><trkpt lat="44.16207245334171" lon="10.028685900239383"><ele>387.0</ele><time>2026-03-29T16:21:14Z</time></trkpt><trkpt lat="44.162007238235894" lon="10.028634425402599"><ele>387.0</ele><time>2026-03-29T16:21:19Z</time></trkpt><trkpt lat="44.16191501985065" lon="10.028561097838407"><ele>387.0</ele><time>2026-03-29T16:21:22Z</time></trkpt><trkpt lat="44.161843682252425" lon="10.028506826973619"><ele>387.0</ele><time>2026-03-29T16:21:24Z</time></trkpt><trkpt lat="44.16178148619794" lon="10.028469763870303"><ele>387.0</ele><time>2026-03-29T16:21:26Z</time></trkpt><trkpt lat="44.16169875536026" lon="10.028489844098523"><ele>387.0</ele><time>2026-03-29T16:21:28Z</time></trkpt><trkpt lat="44.16163137501488" lon="10.028463973621934"><ele>387.0</ele><time>2026-03-29T16:21:31Z</time></trkpt><trkpt lat="44.16154823441512" lon="10.028396214219265"><ele>387.0</ele><time>2026-03-29T16:21:32.999Z</time></trkpt><trkpt lat="44.16147850885167" lon="10.028369817978529"><ele>390.8333333333333</ele><time>2026-03-29T16:21:34.999Z</time></trkpt><trkpt lat="44.161380407595544" lon="10.028358566603119"><ele>394.66666666666663</ele><time>2026-03-29T16:21:37.999Z</time></trkpt><trkpt lat="44.16130679303584" lon="10.028310150685135"><ele>398.5</ele><time>2026-03-29T16:21:40.999Z</time></trkpt><trkpt lat="44.16122452115015" lon="10.028270336373495"><ele>402.3333333333333</ele><time>2026-03-29T16:21:45.999Z</time></trkpt><trkpt lat="44.161288609869914" lon="10.028290093773688"><ele>406.16666666666663</ele><time>2026-03-29T16:22:09.999Z</time></trkpt><trkpt lat="44.16121583857766" lon="10.028285453588945"><ele>410.0</ele><time>2026-03-29T16:23:17Z</time></trkpt><trkpt lat="44.161120011470665" lon="10.028289069003106"><ele>410.0</ele><time>2026-03-29T16:23:20Z</time></trkpt><trkpt lat="44.16105068914431" lon="10.028311419235589"><ele>410.0</ele><time>2026-03-29T16:23:22Z</time></trkpt><trkpt lat="44.16098887392451" lon="10.028361922082361"><ele>410.0</ele><time>2026-03-29T16:23:24Z</time></trkpt><trkpt lat="44.16093470197081" lon="10.028407411556518"><ele>410.0</ele><time>2026-03-29T16:23:26Z</time></trkpt><trkpt lat="44.16084595966274" lon="10.028454747372026"><ele>410.0</ele><time>2026-03-29T16:23:28Z</time></trkpt><trkpt lat="44.16078603938241" lon="10.028517957979073"><ele>410.0</ele><time>2026-03-29T16:23:30Z</time></trkpt><trkpt lat="44.1607393312248" lon="10.028594710850063"><ele>410.0</ele><time>2026-03-29T16:23:32Z</time></trkpt><trkpt lat="44.16068277918467" lon="10.028673574144095"><ele>416.2</ele><time>2026-03-29T16:23:35Z</time></trkpt><trkpt lat="44.16060426587656" lon="10.028739774799009"><ele>422.4</ele><time>2026-03-29T16:23:38Z</time></trkpt><trkpt lat="44.16045696152135" lon="10.028910578202199"><ele>428.6</ele><time>2026-03-29T16:23:39.999Z</time></trkpt><trkpt lat="44.16040913684365" lon="10.028969207068457"><ele>434.8</ele><time>2026-03-29T16:23:41.999Z</time></trkpt><trkpt lat="44.16041151699148" lon="10.029070866636527"><ele>441.0</ele><time>2026-03-29T16:23:44.999Z</time></trkpt><trkpt lat="44.16046761422368" lon="10.029189919965397"><ele>441.0</ele><time>2026-03-29T16:23:47.999Z</time></trkpt><trkpt lat="44.16047889336415" lon="10.029278695438853"><ele>441.0</ele><time>2026-03-29T16:23:49.999Z</time></trkpt><trkpt lat="44.160474287645236" lon="10.029368940858964"><ele>441.0</ele><time>2026-03-29T16:23:52.999Z</time></trkpt><trkpt lat="44.160457907207444" lon="10.029467271575639"><ele>441.0</ele><time>2026-03-29T16:23:54.999Z</time></trkpt><trkpt lat="44.16040874366514" lon="10.029581962537772"><ele>441.0</ele><time>2026-03-29T16:23:57.999Z</time></trkpt><trkpt lat="44.160360718521915" lon="10.029663541691018"><ele>441.0</ele><time>2026-03-29T16:23:59.999Z</time></trkpt><trkpt lat="44.160294654088204" lon="10.029742982482697"><ele>441.0</ele><time>2026-03-29T16:24:02.999Z</time></trkpt><trkpt lat="44.160262785793755" lon="10.029847563486717"><ele>441.0</ele><time>2026-03-29T16:24:05.999Z</time></trkpt><trkpt lat="44.160222873587365" lon="10.029948816174361"><ele>441.0</ele><time>2026-03-29T16:24:07.999Z</time></trkpt><trkpt lat="44.16023159524277" lon="10.030052257069178"><ele>441.0</ele><time>2026-03-29T16:24:11.999Z</time></trkpt><trkpt lat="44.160275290717735" lon="10.030152878745506"><ele>441.0</ele><time>2026-03-29T16:24:14.999Z</time></trkpt><trkpt lat="44.16028991130175" lon="10.03024967494092"><ele>441.0</ele><time>2026-03-29T16:24:16.999Z</time></trkpt><trkpt lat="44.16028860299893" lon="10.030337885803585"><ele>439.6666666666667</ele><time>2026-03-29T16:24:18.999Z</time></trkpt><trkpt lat="44.160261996836304" lon="10.030424096190652"><ele>438.33333333333337</ele><time>2026-03-29T16:24:20.999Z</time></trkpt><trkpt lat="44.16020638078467" lon="10.030492488741517"><ele>437.0</ele><time>2026-03-29T16:24:24.999Z</time></trkpt><trkpt lat="44.16020310194905" lon="10.030625134255114"><ele>435.6666666666667</ele><time>2026-03-29T16:24:28.999Z</time></trkpt><trkpt lat="44.16026249011908" lon="10.030713897734778"><ele>434.33333333333337</ele><time>2026-03-29T16:24:30.999Z</time></trkpt><trkpt lat="44.160313521118304" lon="10.030797770740449"><ele>433.0</ele><time>2026-03-29T16:24:32.999Z</time></trkpt><trkpt lat="44.160372860261994" lon="10.030878616562413"><ele>432.1666666666667</ele><time>2026-03-29T16:24:34.999Z</time></trkpt><trkpt lat="44.160442683478" lon="10.03091603444371"><ele>431.33333333333337</ele><time>2026-03-29T16:24:36.999Z</time></trkpt><trkpt lat="44.16050244771359" lon="10.031005576826452"><ele>430.5</ele><time>2026-03-29T16:24:38.999Z</time></trkpt><trkpt lat="44.160583079849836" lon="10.03107925602044"><ele>429.66666666666663</ele><time>2026-03-29T16:24:40.999Z</time></trkpt><trkpt lat="44.160636506678685" lon="10.031170990509091"><ele>428.8333333333333</ele><time>2026-03-29T16:24:43Z</time></trkpt><trkpt lat="44.160668181296046" lon="10.031283814202434"><ele>428.0</ele><time>2026-03-29T16:24:46Z</time></trkpt><trkpt lat="44.16067037191135" lon="10.031375479556036"><ele>427.99999999999994</ele><time>2026-03-29T16:24:48Z</time></trkpt><trkpt lat="44.16066876098323" lon="10.031513047631973"><ele>428.0</ele><time>2026-03-29T16:24:52Z</time></trkpt><trkpt lat="44.160664827484" lon="10.031611687318254"><ele>428.0</ele><time>2026-03-29T16:24:54Z</time></trkpt><trkpt lat="44.1606758522412" lon="10.031741292843176"><ele>428.0</ele><time>2026-03-29T16:24:57Z</time></trkpt><trkpt lat="44.16068185637444" lon="10.031832090246148"><ele>427.99999999999994</ele><time>2026-03-29T16:24:59Z</time></trkpt><trkpt lat="44.16070427928728" lon="10.031919260724134"><ele>428.0</ele><time>2026-03-29T16:25:01Z</time></trkpt><trkpt lat="44.16074914151346" lon="10.032067255735722"><ele>428.8333333333333</ele><time>2026-03-29T16:25:03Z</time></trkpt><trkpt lat="44.16080607064027" lon="10.032128939735166"><ele>429.66666666666663</ele><time>2026-03-29T16:25:05Z</time></trkpt><trkpt lat="44.16080417773066" lon="10.032223943528251"><ele>430.5</ele><time>2026-03-29T16:25:08Z</time></trkpt><trkpt lat="44.160749173471224" lon="10.032318527307897"><ele>431.33333333333337</ele><time>2026-03-29T16:25:11Z</time></trkpt><trkpt lat="44.160676992672535" lon="10.032368029553197"><ele>432.1666666666667</ele><time>2026-03-29T16:25:13Z</time></trkpt><trkpt lat="44.16059363113092" lon="10.032383533468568"><ele>433.0</ele><time>2026-03-29T16:25:15Z</time></trkpt><trkpt lat="44.16051322856975" lon="10.032387419401172"><ele>433.00000000000006</ele><time>2026-03-29T16:25:17Z</time></trkpt><trkpt lat="44.16043693324877" lon="10.032398821692563"><ele>433.0</ele><time>2026-03-29T16:25:19Z</time></trkpt><trkpt lat="44.16035822146898" lon="10.032414154474294"><ele>433.0</ele><time>2026-03-29T16:25:21Z</time></trkpt><trkpt lat="44.16029014859725" lon="10.032481484465857"><ele>433.0</ele><time>2026-03-29T16:25:23Z</time></trkpt><trkpt lat="44.16027957717331" lon="10.032577653448952"><ele>433.00000000000006</ele><time>2026-03-29T16:25:26Z</time></trkpt><trkpt lat="44.160245398601774" lon="10.03266850259866"><ele>433.0</ele><time>2026-03-29T16:25:29Z</time></trkpt><trkpt lat="44.16019501012125" lon="10.032748034076238"><ele>435.00000000000006</ele><time>2026-03-29T16:25:31Z</time></trkpt><trkpt lat="44.16012694626985" lon="10.032795759178281"><ele>437.0</ele><time>2026-03-29T16:25:33Z</time></trkpt><trkpt lat="44.160027539777374" lon="10.032794568256861"><ele>439.0</ele><time>2026-03-29T16:25:35Z</time></trkpt><trkpt lat="44.15996480460252" lon="10.032809444450711"><ele>441.0</ele><time>2026-03-29T16:25:37Z</time></trkpt><trkpt lat="44.15985444185167" lon="10.032844583027188"><ele>443.00000000000006</ele><time>2026-03-29T16:25:40.999Z</time></trkpt><trkpt lat="44.159783737164055" lon="10.032840572941645"><ele>445.0</ele><time>2026-03-29T16:25:42.999Z</time></trkpt><trkpt lat="44.15971882955834" lon="10.032862120027199"><ele>445.00000000000006</ele><time>2026-03-29T16:25:45.999Z</time></trkpt><trkpt lat="44.1596727431819" lon="10.032969868943967"><ele>445.0</ele><time>2026-03-29T16:25:49.999Z</time></trkpt><trkpt lat="44.1596835384887" lon="10.033066851496402"><ele>445.0</ele><time>2026-03-29T16:25:51.999Z</time></trkpt><trkpt lat="44.1597216315839" lon="10.03317303034615"><ele>445.0</ele><time>2026-03-29T16:25:54.999Z</time></trkpt><trkpt lat="44.15970936799334" lon="10.033295471575189"><ele>445.00000000000006</ele><time>2026-03-29T16:25:57.999Z</time></trkpt><trkpt lat="44.159649135357725" lon="10.033372321517284"><ele>445.0</ele><time>2026-03-29T16:26:00.999Z</time></trkpt><trkpt lat="44.15957737054129" lon="10.03339475130807"><ele>445.00000000000006</ele><time>2026-03-29T16:26:03.999Z</time></trkpt><trkpt lat="44.159507585378265" lon="10.033397354988352"><ele>445.0</ele><time>2026-03-29T16:26:06.999Z</time></trkpt><trkpt lat="44.15942935391796" lon="10.033334886075252"><ele>445.0</ele><time>2026-03-29T16:26:09.999Z</time></trkpt><trkpt lat="44.15934915493054" lon="10.033273403990902"><ele>445.0</ele><time>2026-03-29T16:26:12.999Z</time></trkpt><trkpt lat="44.159278416873875" lon="10.033282041326666"><ele>445.00000000000006</ele><time>2026-03-29T16:26:14.999Z</time></trkpt><trkpt lat="44.15919406251485" lon="10.03331954390338"><ele>445.0</ele><time>2026-03-29T16:26:16.999Z</time></trkpt><trkpt lat="44.15910652468977" lon="10.033378938518121"><ele>440.83333333333337</ele><time>2026-03-29T16:26:19.999Z</time></trkpt><trkpt lat="44.159030402341436" lon="10.033424616047753"><ele>436.6666666666667</ele><time>2026-03-29T16:26:22.999Z</time></trkpt><trkpt lat="44.1589324702119" lon="10.033450546702724"><ele>432.5</ele><time>2026-03-29T16:26:26.999Z</time></trkpt><trkpt lat="44.158860438003536" lon="10.03344411247471"><ele>428.33333333333337</ele><time>2026-03-29T16:26:28.999Z</time></trkpt><trkpt lat="44.15878603354415" lon="10.033443155861727"><ele>424.1666666666667</ele><time>2026-03-29T16:26:30.999Z</time></trkpt><trkpt lat="44.158720901852014" lon="10.033465746048796"><ele>420.0</ele><time>2026-03-29T16:26:32.999Z</time></trkpt><trkpt lat="44.15864642059191" lon="10.033467192159385"><ele>420.0</ele><time>2026-03-29T16:26:34.999Z</time></trkpt><trkpt lat="44.15855383627975" lon="10.033476346783866"><ele>420.0</ele><time>2026-03-29T16:26:36.999Z</time></trkpt><trkpt lat="44.158493477001805" lon="10.033432821511187"><ele>420.0</ele><time>2026-03-29T16:26:38.999Z</time></trkpt><trkpt lat="44.15842160108091" lon="10.033393956477624"><ele>420.0</ele><time>2026-03-29T16:26:40.999Z</time></trkpt><trkpt lat="44.158348635789444" lon="10.033370301671448"><ele>420.0</ele><time>2026-03-29T16:26:42.999Z</time></trkpt><trkpt lat="44.15826429504241" lon="10.033338463234479"><ele>420.0</ele><time>2026-03-29T16:26:44.999Z</time></trkpt><trkpt lat="44.15817580903024" lon="10.033293519168698"><ele>421.5</ele><time>2026-03-29T16:26:46.999Z</time></trkpt><trkpt lat="44.158087340491996" lon="10.033236711256317"><ele>423.0</ele><time>2026-03-29T16:26:49Z</time></trkpt><trkpt lat="44.15802250354913" lon="10.033179217391252"><ele>424.5</ele><time>2026-03-29T16:26:52Z</time></trkpt><trkpt lat="44.1579432450278" lon="10.033118633554416"><ele>426.0</ele><time>2026-03-29T16:26:58Z</time></trkpt><trkpt lat="44.15786553534588" lon="10.033061465841744"><ele>427.5</ele><time>2026-03-29T16:27:00Z</time></trkpt><trkpt lat="44.15779033640312" lon="10.033020255235844"><ele>429.0</ele><time>2026-03-29T16:27:03Z</time></trkpt><trkpt lat="44.157701768164465" lon="10.03298706005395"><ele>429.0</ele><time>2026-03-29T16:27:06Z</time></trkpt><trkpt lat="44.15762398327876" lon="10.032998548470161"><ele>429.0</ele><time>2026-03-29T16:27:09Z</time></trkpt><trkpt lat="44.1575561524201" lon="10.03303441098304"><ele>429.0</ele><time>2026-03-29T16:27:21Z</time></trkpt><trkpt lat="44.1574669223828" lon="10.032992410073092"><ele>429.0</ele><time>2026-03-29T16:27:24Z</time></trkpt><trkpt lat="44.157377768780464" lon="10.032948141785003"><ele>429.0</ele><time>2026-03-29T16:27:26Z</time></trkpt><trkpt lat="44.15727732155482" lon="10.032911899067376"><ele>429.0</ele><time>2026-03-29T16:27:28Z</time></trkpt><trkpt lat="44.15716820397897" lon="10.032867931914621"><ele>428.1666666666667</ele><time>2026-03-29T16:27:30Z</time></trkpt><trkpt lat="44.15705116496573" lon="10.032809163788105"><ele>427.33333333333337</ele><time>2026-03-29T16:27:32Z</time></trkpt><trkpt lat="44.15699002819189" lon="10.032781164731539"><ele>426.5</ele><time>2026-03-29T16:27:33Z</time></trkpt><trkpt lat="44.15692738685292" lon="10.032751038572103"><ele>425.6666666666667</ele><time>2026-03-29T16:27:34Z</time></trkpt><trkpt lat="44.156866428831684" lon="10.032725076641537"><ele>424.83333333333337</ele><time>2026-03-29T16:27:35Z</time></trkpt><trkpt lat="44.15680317075957" lon="10.032694933894284"><ele>424.0</ele><time>2026-03-29T16:27:36Z</time></trkpt><trkpt lat="44.15674326375093" lon="10.03265975961631"><ele>424.0</ele><time>2026-03-29T16:27:37Z</time></trkpt><trkpt lat="44.15669106781072" lon="10.032605132430389"><ele>424.0</ele><time>2026-03-29T16:27:38Z</time></trkpt><trkpt lat="44.15664822059564" lon="10.0325361275327"><ele>424.0</ele><time>2026-03-29T16:27:39Z</time></trkpt><trkpt lat="44.15660437033702" lon="10.032472679862543"><ele>424.0</ele><time>2026-03-29T16:27:40Z</time></trkpt><trkpt lat="44.15655629257152" lon="10.032413754391877"><ele>424.0</ele><time>2026-03-29T16:27:41Z</time></trkpt><trkpt lat="44.15650255563669" lon="10.032366158629683"><ele>424.0</ele><time>2026-03-29T16:27:42Z</time></trkpt><trkpt lat="44.15644325625703" lon="10.03233050634023"><ele>424.0</ele><time>2026-03-29T16:27:43Z</time></trkpt><trkpt lat="44.15638484538158" lon="10.032292913751611"><ele>425.6</ele><time>2026-03-29T16:27:44Z</time></trkpt><trkpt lat="44.15627378870703" lon="10.032260186063322"><ele>427.2</ele><time>2026-03-29T16:27:46Z</time></trkpt><trkpt lat="44.1561863952272" lon="10.032342113288825"><ele>428.80000000000007</ele><time>2026-03-29T16:27:48Z</time></trkpt><trkpt lat="44.156112734874156" lon="10.032479240271924"><ele>430.40000000000003</ele><time>2026-03-29T16:27:50Z</time></trkpt><trkpt lat="44.15607603492716" lon="10.032565246459876"><ele>432.0</ele><time>2026-03-29T16:27:51Z</time></trkpt><trkpt lat="44.15605433300696" lon="10.032662382526802"><ele>432.0</ele><time>2026-03-29T16:27:51.999Z</time></trkpt><trkpt lat="44.156044699893535" lon="10.032768352753601"><ele>432.0</ele><time>2026-03-29T16:27:52.999Z</time></trkpt><trkpt lat="44.156036702739456" lon="10.032872932873511"><ele>432.0</ele><time>2026-03-29T16:27:53.999Z</time></trkpt><trkpt lat="44.15601811605258" lon="10.032977777897834"><ele>432.0</ele><time>2026-03-29T16:27:54.999Z</time></trkpt><trkpt lat="44.15598938019891" lon="10.03308128594611"><ele>432.0</ele><time>2026-03-29T16:27:55.999Z</time></trkpt><trkpt lat="44.155948114714185" lon="10.033174250639934"><ele>432.0</ele><time>2026-03-29T16:27:56.999Z</time></trkpt><trkpt lat="44.15589508766363" lon="10.033255886299841"><ele>431.0</ele><time>2026-03-29T16:27:57.999Z</time></trkpt><trkpt lat="44.15583716560446" lon="10.033332739850977"><ele>430.0</ele><time>2026-03-29T16:27:58.999Z</time></trkpt><trkpt lat="44.155775187607276" lon="10.033408703149254"><ele>429.0</ele><time>2026-03-29T16:27:59.999Z</time></trkpt><trkpt lat="44.155709784632904" lon="10.033477764714055"><ele>428.0</ele><time>2026-03-29T16:28:00.999Z</time></trkpt><trkpt lat="44.155636367850725" lon="10.033522322285577"><ele>427.0</ele><time>2026-03-29T16:28:01.999Z</time></trkpt><trkpt lat="44.155561018538165" lon="10.033530672764714"><ele>426.0</ele><time>2026-03-29T16:28:02.999Z</time></trkpt><trkpt lat="44.15548803673329" lon="10.0335150101454"><ele>426.0</ele><time>2026-03-29T16:28:03.999Z</time></trkpt><trkpt lat="44.15544147360464" lon="10.03343166410894"><ele>426.0</ele><time>2026-03-29T16:28:04.999Z</time></trkpt><trkpt lat="44.15540653677982" lon="10.033340098675767"><ele>426.0</ele><time>2026-03-29T16:28:05.999Z</time></trkpt><trkpt lat="44.15538188785272" lon="10.033238765291266"><ele>426.0</ele><time>2026-03-29T16:28:06.999Z</time></trkpt><trkpt lat="44.15535363329512" lon="10.033131815427648"><ele>426.0</ele><time>2026-03-29T16:28:07.999Z</time></trkpt><trkpt lat="44.15532348159553" lon="10.033025041464693"><ele>426.0</ele><time>2026-03-29T16:28:08.999Z</time></trkpt><trkpt lat="44.15529588830193" lon="10.032910618934931"><ele>427.0</ele><time>2026-03-29T16:28:09.999Z</time></trkpt><trkpt lat="44.15527117846057" lon="10.032794941399956"><ele>428.0</ele><time>2026-03-29T16:28:10.999Z</time></trkpt><trkpt lat="44.15524702052898" lon="10.032677169256932"><ele>429.0</ele><time>2026-03-29T16:28:11.999Z</time></trkpt><trkpt lat="44.15522536209628" lon="10.032557179602753"><ele>430.0</ele><time>2026-03-29T16:28:12.999Z</time></trkpt><trkpt lat="44.15519682816047" lon="10.032439810762268"><ele>431.0</ele><time>2026-03-29T16:28:13.999Z</time></trkpt><trkpt lat="44.15514847013126" lon="10.0323336307573"><ele>432.0</ele><time>2026-03-29T16:28:14.999Z</time></trkpt><trkpt lat="44.1550821355775" lon="10.032247811917333"><ele>435.0</ele><time>2026-03-29T16:28:15.999Z</time></trkpt><trkpt lat="44.15500593286811" lon="10.03216981062612"><ele>438.00000000000006</ele><time>2026-03-29T16:28:16.999Z</time></trkpt><trkpt lat="44.154911614928515" lon="10.032107405766704"><ele>441.00000000000006</ele><time>2026-03-29T16:28:17.999Z</time></trkpt><trkpt lat="44.15480250897805" lon="10.032055410469555"><ele>444.0</ele><time>2026-03-29T16:28:18.999Z</time></trkpt><trkpt lat="44.1546859289258" lon="10.032006922599626"><ele>447.0</ele><time>2026-03-29T16:28:19.999Z</time></trkpt><trkpt lat="44.15455891229057" lon="10.031956056685726"><ele>447.25</ele><time>2026-03-29T16:28:20.999Z</time></trkpt><trkpt lat="44.15442265151375" lon="10.031901273820102"><ele>447.5</ele><time>2026-03-29T16:28:21.999Z</time></trkpt><trkpt lat="44.15427900871149" lon="10.031841304379855"><ele>447.75</ele><time>2026-03-29T16:28:22.999Z</time></trkpt><trkpt lat="44.154132000179054" lon="10.031775355570398"><ele>448.0</ele><time>2026-03-29T16:28:23.999Z</time></trkpt><trkpt lat="44.15397985280301" lon="10.031708045419794"><ele>448.25</ele><time>2026-03-29T16:28:24.999Z</time></trkpt><trkpt lat="44.153817324871554" lon="10.031670974013068"><ele>448.5</ele><time>2026-03-29T16:28:25.999Z</time></trkpt><trkpt lat="44.15366356276778" lon="10.031655429001225"><ele>448.75</ele><time>2026-03-29T16:28:26.999Z</time></trkpt><trkpt lat="44.15353758182758" lon="10.031628351542436"><ele>449.0</ele><time>2026-03-29T16:28:27.999Z</time></trkpt><trkpt lat="44.15343295032335" lon="10.031582903108099"><ele>447.75</ele><time>2026-03-29T16:28:28.999Z</time></trkpt><trkpt lat="44.15333569426842" lon="10.031498358560683"><ele>446.5</ele><time>2026-03-29T16:28:29.999Z</time></trkpt><trkpt lat="44.153237080198245" lon="10.031392027897702"><ele>445.25</ele><time>2026-03-29T16:28:30.999Z</time></trkpt><trkpt lat="44.15314183722081" lon="10.031274633389588"><ele>444.0</ele><time>2026-03-29T16:28:31.999Z</time></trkpt><trkpt lat="44.15306674995147" lon="10.03112793124138"><ele>444.0</ele><time>2026-03-29T16:28:32.999Z</time></trkpt><trkpt lat="44.15299243236866" lon="10.03098451477326"><ele>444.0</ele><time>2026-03-29T16:28:33.999Z</time></trkpt><trkpt lat="44.152920894396004" lon="10.030830550326904"><ele>444.0</ele><time>2026-03-29T16:28:34.999Z</time></trkpt><trkpt lat="44.152846051193634" lon="10.030654856197376"><ele>444.0</ele><time>2026-03-29T16:28:35.999Z</time></trkpt><trkpt lat="44.15276841945519" lon="10.030469588082363"><ele>448.66666666666663</ele><time>2026-03-29T16:28:36.999Z</time></trkpt><trkpt lat="44.15268372056246" lon="10.030280732919554"><ele>453.3333333333333</ele><time>2026-03-29T16:28:37.999Z</time></trkpt><trkpt lat="44.152596483358714" lon="10.030091413180509"><ele>458.0</ele><time>2026-03-29T16:28:38.999Z</time></trkpt><trkpt lat="44.15250932536427" lon="10.02990265964711"><ele>464.4</ele><time>2026-03-29T16:28:39.999Z</time></trkpt><trkpt lat="44.15243166874177" lon="10.029762361203009"><ele>470.79999999999995</ele><time>2026-03-29T16:28:40.999Z</time></trkpt><trkpt lat="44.15234353693054" lon="10.029669260369063"><ele>477.2</ele><time>2026-03-29T16:28:41.999Z</time></trkpt><trkpt lat="44.152251457844095" lon="10.02960111472083"><ele>483.6</ele><time>2026-03-29T16:28:42.999Z</time></trkpt><trkpt lat="44.15215370231919" lon="10.029564762811365"><ele>490.0</ele><time>2026-03-29T16:28:43.999Z</time></trkpt><trkpt lat="44.15205068954876" lon="10.02956303579656"><ele>490.75</ele><time>2026-03-29T16:28:44.999Z</time></trkpt><trkpt lat="44.15193911330172" lon="10.029605774694334"><ele>491.5</ele><time>2026-03-29T16:28:45.999Z</time></trkpt><trkpt lat="44.15182418847001" lon="10.029680097839107"><ele>492.25</ele><time>2026-03-29T16:28:46.999Z</time></trkpt><trkpt lat="44.15169908743156" lon="10.02974557290327"><ele>493.0</ele><time>2026-03-29T16:28:47.999Z</time></trkpt><trkpt lat="44.15155973169864" lon="10.029782599933123"><ele>490.0</ele><time>2026-03-29T16:28:48.999Z</time></trkpt><trkpt lat="44.15141271505705" lon="10.029790678989201"><ele>487.0</ele><time>2026-03-29T16:28:49.999Z</time></trkpt><trkpt lat="44.151263751617" lon="10.029788003179686"><ele>484.0</ele><time>2026-03-29T16:28:50.999Z</time></trkpt><trkpt lat="44.15112957309593" lon="10.029788618452535"><ele>481.0</ele><time>2026-03-29T16:28:51.999Z</time></trkpt><trkpt lat="44.15101935473413" lon="10.029768235070437"><ele>481.0</ele><time>2026-03-29T16:28:52.999Z</time></trkpt><trkpt lat="44.15092855415109" lon="10.029703178861169"><ele>481.0</ele><time>2026-03-29T16:28:53.999Z</time></trkpt><trkpt lat="44.1508492407224" lon="10.029609787080938"><ele>481.0</ele><time>2026-03-29T16:28:55Z</time></trkpt><trkpt lat="44.15078623753331" lon="10.029471004315514"><ele>481.0</ele><time>2026-03-29T16:28:56Z</time></trkpt><trkpt lat="44.150757183480366" lon="10.029295405849707"><ele>478.25</ele><time>2026-03-29T16:28:57Z</time></trkpt><trkpt lat="44.15069973615408" lon="10.029119406143497"><ele>475.5</ele><time>2026-03-29T16:28:58Z</time></trkpt><trkpt lat="44.150668697972165" lon="10.028923115745824"><ele>472.75</ele><time>2026-03-29T16:28:59Z</time></trkpt><trkpt lat="44.15062335043254" lon="10.028728952068164"><ele>470.0</ele><time>2026-03-29T16:29:00Z</time></trkpt><trkpt lat="44.15058340439683" lon="10.028530444181674"><ele>470.0</ele><time>2026-03-29T16:29:01Z</time></trkpt><trkpt lat="44.15057657416063" lon="10.028318159901957"><ele>470.0</ele><time>2026-03-29T16:29:02Z</time></trkpt><trkpt lat="44.15060693434064" lon="10.028101268570888"><ele>470.0</ele><time>2026-03-29T16:29:03Z</time></trkpt><trkpt lat="44.15061522241268" lon="10.02789098282279"><ele>473.2</ele><time>2026-03-29T16:29:04Z</time></trkpt><trkpt lat="44.150630179137764" lon="10.027716125108514"><ele>476.4</ele><time>2026-03-29T16:29:05Z</time></trkpt><trkpt lat="44.15063768057048" lon="10.027576592517"><ele>479.6</ele><time>2026-03-29T16:29:06Z</time></trkpt><trkpt lat="44.15061975292416" lon="10.027460522358002"><ele>482.8</ele><time>2026-03-29T16:29:07Z</time></trkpt><trkpt lat="44.15058556018511" lon="10.027357902511913"><ele>486.0</ele><time>2026-03-29T16:29:08Z</time></trkpt><trkpt lat="44.15052115727561" lon="10.027278276075588"><ele>488.0</ele><time>2026-03-29T16:29:09Z</time></trkpt><trkpt lat="44.150439598956694" lon="10.02723708860574"><ele>490.0</ele><time>2026-03-29T16:29:10Z</time></trkpt><trkpt lat="44.15034300656582" lon="10.02724462155536"><ele>492.0</ele><time>2026-03-29T16:29:11Z</time></trkpt><trkpt lat="44.15026301538753" lon="10.02729162947146"><ele>494.0</ele><time>2026-03-29T16:29:12Z</time></trkpt><trkpt lat="44.150193051178405" lon="10.027307919429955"><ele>496.0</ele><time>2026-03-29T16:29:13Z</time></trkpt><trkpt lat="44.150141727111254" lon="10.02725464816545"><ele>498.0</ele><time>2026-03-29T16:29:14Z</time></trkpt><trkpt lat="44.15011152074285" lon="10.027163426647057"><ele>498.0</ele><time>2026-03-29T16:29:15Z</time></trkpt><trkpt lat="44.15013321501015" lon="10.027057163945035"><ele>497.99999999999994</ele><time>2026-03-29T16:29:16Z</time></trkpt><trkpt lat="44.150152584743616" lon="10.026926059002212"><ele>497.99999999999994</ele><time>2026-03-29T16:29:17Z</time></trkpt><trkpt lat="44.15014955417882" lon="10.026784127642337"><ele>498.0</ele><time>2026-03-29T16:29:18Z</time></trkpt><trkpt lat="44.15011055742087" lon="10.02666504794295"><ele>498.0</ele><time>2026-03-29T16:29:19Z</time></trkpt><trkpt lat="44.150043428888" lon="10.026576331066227"><ele>498.0</ele><time>2026-03-29T16:29:20Z</time></trkpt><trkpt lat="44.14995821777112" lon="10.026518307029038"><ele>497.99999999999994</ele><time>2026-03-29T16:29:21Z</time></trkpt><trkpt lat="44.14987334081312" lon="10.026462850679392"><ele>497.99999999999994</ele><time>2026-03-29T16:29:22Z</time></trkpt><trkpt lat="44.14980169172359" lon="10.026372647732389"><ele>498.0</ele><time>2026-03-29T16:29:23Z</time></trkpt><trkpt lat="44.14977013852201" lon="10.026246634154395"><ele>498.0</ele><time>2026-03-29T16:29:24Z</time></trkpt><trkpt lat="44.14975604161981" lon="10.02610381352015"><ele>498.0</ele><time>2026-03-29T16:29:25Z</time></trkpt><trkpt lat="44.14976415090353" lon="10.025941737256185"><ele>497.99999999999994</ele><time>2026-03-29T16:29:26Z</time></trkpt><trkpt lat="44.149804471306425" lon="10.025791716156876"><ele>497.99999999999994</ele><time>2026-03-29T16:29:27Z</time></trkpt><trkpt lat="44.14985472193754" lon="10.02567535757387"><ele>498.0</ele><time>2026-03-29T16:29:28Z</time></trkpt><trkpt lat="44.14987941191263" lon="10.025568538004022"><ele>498.0</ele><time>2026-03-29T16:29:29Z</time></trkpt><trkpt lat="44.14989224807365" lon="10.025479009092649"><ele>500.0</ele><time>2026-03-29T16:29:30Z</time></trkpt><trkpt lat="44.14984599659403" lon="10.025367436010573"><ele>501.99999999999994</ele><time>2026-03-29T16:29:31Z</time></trkpt><trkpt lat="44.149763957297324" lon="10.025308618173213"><ele>503.99999999999994</ele><time>2026-03-29T16:29:32Z</time></trkpt><trkpt lat="44.149671766118054" lon="10.025300074569564"><ele>506.0</ele><time>2026-03-29T16:29:33Z</time></trkpt><trkpt lat="44.14958903477573" lon="10.02524243629344"><ele>508.0</ele><time>2026-03-29T16:29:34Z</time></trkpt><trkpt lat="44.14950110716379" lon="10.025158314406704"><ele>508.0</ele><time>2026-03-29T16:29:35Z</time></trkpt><trkpt lat="44.14941110026222" lon="10.025050658558197"><ele>507.99999999999994</ele><time>2026-03-29T16:29:36Z</time></trkpt><trkpt lat="44.149325623259074" lon="10.024945668051304"><ele>507.99999999999994</ele><time>2026-03-29T16:29:37Z</time></trkpt><trkpt lat="44.1492694229186" lon="10.024874472097157"><ele>508.0</ele><time>2026-03-29T16:29:38Z</time></trkpt><trkpt lat="44.14915206005402" lon="10.024816338556857"><ele>508.0</ele><time>2026-03-29T16:29:40Z</time></trkpt><trkpt lat="44.14909067276666" lon="10.024912958902712"><ele>507.79999999999995</ele><time>2026-03-29T16:29:41Z</time></trkpt><trkpt lat="44.149037405245224" lon="10.025010577815735"><ele>507.59999999999997</ele><time>2026-03-29T16:29:42Z</time></trkpt><trkpt lat="44.14896482638921" lon="10.02511690153189"><ele>507.40000000000003</ele><time>2026-03-29T16:29:43Z</time></trkpt><trkpt lat="44.14887676073742" lon="10.025224612275684"><ele>507.20000000000005</ele><time>2026-03-29T16:29:44Z</time></trkpt><trkpt lat="44.1487916955525" lon="10.025287509117426"><ele>507.0</ele><time>2026-03-29T16:29:45Z</time></trkpt><trkpt lat="44.14869847457866" lon="10.025325656710388"><ele>507.0</ele><time>2026-03-29T16:29:46Z</time></trkpt><trkpt lat="44.148594055972126" lon="10.02532932520519"><ele>507.00000000000006</ele><time>2026-03-29T16:29:47Z</time></trkpt><trkpt lat="44.14848496647407" lon="10.025300442173334"><ele>507.00000000000006</ele><time>2026-03-29T16:29:48Z</time></trkpt><trkpt lat="44.14838391790104" lon="10.025232202101014"><ele>507.0</ele><time>2026-03-29T16:29:49Z</time></trkpt><trkpt lat="44.148303343859624" lon="10.025117346488843"><ele>507.0</ele><time>2026-03-29T16:29:50Z</time></trkpt><trkpt lat="44.14823199137646" lon="10.02498259074465"><ele>511.0</ele><time>2026-03-29T16:29:51Z</time></trkpt><trkpt lat="44.14816281089924" lon="10.024872007359448"><ele>515.0</ele><time>2026-03-29T16:29:52Z</time></trkpt><trkpt lat="44.14808570798775" lon="10.024803711322939"><ele>519.0</ele><time>2026-03-29T16:29:53Z</time></trkpt><trkpt lat="44.14799282453989" lon="10.02477208696055"><ele>523.0</ele><time>2026-03-29T16:29:54Z</time></trkpt><trkpt lat="44.147896678425184" lon="10.024772557835123"><ele>527.0</ele><time>2026-03-29T16:29:55Z</time></trkpt><trkpt lat="44.14779368290865" lon="10.02481542789878"><ele>527.0</ele><time>2026-03-29T16:29:56Z</time></trkpt><trkpt lat="44.147681650648764" lon="10.024857511992021"><ele>527.0</ele><time>2026-03-29T16:29:57Z</time></trkpt><trkpt lat="44.14757156777503" lon="10.024898665513794"><ele>527.0</ele><time>2026-03-29T16:29:57.999Z</time></trkpt><trkpt lat="44.14748297882608" lon="10.024933636135689"><ele>527.0</ele><time>2026-03-29T16:29:58.999Z</time></trkpt><trkpt lat="44.147410855708614" lon="10.02495344714517"><ele>527.0</ele><time>2026-03-29T16:29:59.999Z</time></trkpt><trkpt lat="44.14734239699719" lon="10.024941179909852"><ele>525.1666666666666</ele><time>2026-03-29T16:30:00.999Z</time></trkpt><trkpt lat="44.147284206323064" lon="10.024890983141255"><ele>523.3333333333333</ele><time>2026-03-29T16:30:01.999Z</time></trkpt><trkpt lat="44.14723273722441" lon="10.02483840590872"><ele>521.5</ele><time>2026-03-29T16:30:02.999Z</time></trkpt><trkpt lat="44.147180160396026" lon="10.024787636021841"><ele>519.6666666666666</ele><time>2026-03-29T16:30:03.999Z</time></trkpt><trkpt lat="44.147119534911276" lon="10.024728963359546"><ele>517.8333333333334</ele><time>2026-03-29T16:30:04.999Z</time></trkpt><trkpt lat="44.147035628032555" lon="10.024655877134293"><ele>516.0</ele><time>2026-03-29T16:30:05.999Z</time></trkpt><trkpt lat="44.14694711601605" lon="10.024579892724192"><ele>516.0</ele><time>2026-03-29T16:30:06.999Z</time></trkpt><trkpt lat="44.146860666832886" lon="10.024524298380731"><ele>516.0</ele><time>2026-03-29T16:30:07.999Z</time></trkpt><trkpt lat="44.146777154632254" lon="10.024469677325763"><ele>516.0</ele><time>2026-03-29T16:30:08.999Z</time></trkpt><trkpt lat="44.14670389242993" lon="10.024415199960378"><ele>516.0</ele><time>2026-03-29T16:30:09.999Z</time></trkpt><trkpt lat="44.14663159653248" lon="10.02438096076189"><ele>516.0</ele><time>2026-03-29T16:30:10.999Z</time></trkpt><trkpt lat="44.146553051660895" lon="10.024373557349149"><ele>516.0</ele><time>2026-03-29T16:30:11.999Z</time></trkpt><trkpt lat="44.14647163741133" lon="10.024400999439273"><ele>514.0</ele><time>2026-03-29T16:30:12.999Z</time></trkpt><trkpt lat="44.1463952452528" lon="10.024465390663178"><ele>512.0</ele><time>2026-03-29T16:30:13.999Z</time></trkpt><trkpt lat="44.14632628100289" lon="10.024556830527956"><ele>510.0</ele><time>2026-03-29T16:30:14.999Z</time></trkpt><trkpt lat="44.14624677101468" lon="10.02464606625937"><ele>508.0</ele><time>2026-03-29T16:30:15.999Z</time></trkpt><trkpt lat="44.146166425002136" lon="10.02473321528938"><ele>506.0</ele><time>2026-03-29T16:30:16.999Z</time></trkpt><trkpt lat="44.1460924218322" lon="10.02480057102409"><ele>506.0</ele><time>2026-03-29T16:30:17.999Z</time></trkpt><trkpt lat="44.146018555822124" lon="10.024864558085719"><ele>506.0</ele><time>2026-03-29T16:30:18.999Z</time></trkpt><trkpt lat="44.1459320421422" lon="10.024909410225542"><ele>506.0</ele><time>2026-03-29T16:30:19.999Z</time></trkpt><trkpt lat="44.14584266171729" lon="10.02494091752396"><ele>506.0</ele><time>2026-03-29T16:30:20.999Z</time></trkpt><trkpt lat="44.145745722837496" lon="10.024949941621252"><ele>506.0</ele><time>2026-03-29T16:30:21.999Z</time></trkpt><trkpt lat="44.14564874783199" lon="10.024939141835793"><ele>506.6</ele><time>2026-03-29T16:30:22.999Z</time></trkpt><trkpt lat="44.14555113081764" lon="10.024898244712439"><ele>507.20000000000005</ele><time>2026-03-29T16:30:23.999Z</time></trkpt><trkpt lat="44.145442668131054" lon="10.024839032996374"><ele>507.79999999999995</ele><time>2026-03-29T16:30:24.999Z</time></trkpt><trkpt lat="44.145340464851145" lon="10.024789626323644"><ele>508.4</ele><time>2026-03-29T16:30:25.999Z</time></trkpt><trkpt lat="44.145250230286564" lon="10.024736748717782"><ele>509.0</ele><time>2026-03-29T16:30:26.999Z</time></trkpt><trkpt lat="44.14518062427897" lon="10.02467630316059"><ele>509.0</ele><time>2026-03-29T16:30:27.999Z</time></trkpt><trkpt lat="44.14511996848156" lon="10.024585753316845"><ele>509.0</ele><time>2026-03-29T16:30:28.999Z</time></trkpt><trkpt lat="44.14506667360778" lon="10.024473109632096"><ele>509.0</ele><time>2026-03-29T16:30:29.999Z</time></trkpt><trkpt lat="44.1449995650309" lon="10.024365924866158"><ele>509.0</ele><time>2026-03-29T16:30:30.999Z</time></trkpt><trkpt lat="44.144913044573485" lon="10.024293062878577"><ele>509.0</ele><time>2026-03-29T16:30:31.999Z</time></trkpt><trkpt lat="44.14482450469817" lon="10.024232410343393"><ele>512.4</ele><time>2026-03-29T16:30:32.999Z</time></trkpt><trkpt lat="44.14473292836165" lon="10.024182568955952"><ele>515.8</ele><time>2026-03-29T16:30:33.999Z</time></trkpt><trkpt lat="44.1446374668367" lon="10.02414063587305"><ele>519.2</ele><time>2026-03-29T16:30:34.999Z</time></trkpt><trkpt lat="44.14454494820788" lon="10.024099774998579"><ele>522.6</ele><time>2026-03-29T16:30:35.999Z</time></trkpt><trkpt lat="44.144470556790324" lon="10.02405718355413"><ele>526.0</ele><time>2026-03-29T16:30:36.999Z</time></trkpt><trkpt lat="44.1444043947127" lon="10.023991685728639"><ele>526.2</ele><time>2026-03-29T16:30:37.999Z</time></trkpt><trkpt lat="44.14435584244645" lon="10.023901480609391"><ele>526.4000000000001</ele><time>2026-03-29T16:30:38.999Z</time></trkpt><trkpt lat="44.14432649444156" lon="10.023789417265945"><ele>526.6</ele><time>2026-03-29T16:30:39.999Z</time></trkpt><trkpt lat="44.14431242118665" lon="10.023661669896613"><ele>526.8000000000001</ele><time>2026-03-29T16:30:40.999Z</time></trkpt><trkpt lat="44.14431702832581" lon="10.023517853231944"><ele>527.0</ele><time>2026-03-29T16:30:41.999Z</time></trkpt><trkpt lat="44.14430838813135" lon="10.023368743049092"><ele>525.5</ele><time>2026-03-29T16:30:42.999Z</time></trkpt><trkpt lat="44.14429242187793" lon="10.02321111275047"><ele>524.0</ele><time>2026-03-29T16:30:43.999Z</time></trkpt><trkpt lat="44.1442593438493" lon="10.023040864731229"><ele>522.5</ele><time>2026-03-29T16:30:44.999Z</time></trkpt><trkpt lat="44.14420704815185" lon="10.02286570889492"><ele>521.0</ele><time>2026-03-29T16:30:45.999Z</time></trkpt><trkpt lat="44.144177314879734" lon="10.022667083423016"><ele>520.25</ele><time>2026-03-29T16:30:46.999Z</time></trkpt><trkpt lat="44.14415029814252" lon="10.022470469678847"><ele>519.5</ele><time>2026-03-29T16:30:47.999Z</time></trkpt><trkpt lat="44.1441231951675" lon="10.022279763029712"><ele>518.75</ele><time>2026-03-29T16:30:48.999Z</time></trkpt><trkpt lat="44.14409978477824" lon="10.022080352641897"><ele>518.0</ele><time>2026-03-29T16:30:49.999Z</time></trkpt><trkpt lat="44.14407595983449" lon="10.021876253428525"><ele>518.0</ele><time>2026-03-29T16:30:50.999Z</time></trkpt><trkpt lat="44.14406006564658" lon="10.021653609146586"><ele>518.0</ele><time>2026-03-29T16:30:51.999Z</time></trkpt><trkpt lat="44.14405909299054" lon="10.021429379377944"><ele>518.0</ele><time>2026-03-29T16:30:52.999Z</time></trkpt><trkpt lat="44.14404732305369" lon="10.021195560643482"><ele>517.75</ele><time>2026-03-29T16:30:53.999Z</time></trkpt><trkpt lat="44.144010261067876" lon="10.020990343522493"><ele>517.5</ele><time>2026-03-29T16:30:54.999Z</time></trkpt><trkpt lat="44.14398593746798" lon="10.020808471994174"><ele>517.25</ele><time>2026-03-29T16:30:55.999Z</time></trkpt><trkpt lat="44.14396426242125" lon="10.020652718523356"><ele>517.0</ele><time>2026-03-29T16:30:56.999Z</time></trkpt><trkpt lat="44.1439189249254" lon="10.020532576276793"><ele>517.0</ele><time>2026-03-29T16:30:57.999Z</time></trkpt><trkpt lat="44.14388021730776" lon="10.020431652502252"><ele>517.0</ele><time>2026-03-29T16:30:58.999Z</time></trkpt><trkpt lat="44.143824675705716" lon="10.020349370832045"><ele>517.0</ele><time>2026-03-29T16:31:00Z</time></trkpt><trkpt lat="44.14375521082683" lon="10.020291078319476"><ele>517.0</ele><time>2026-03-29T16:31:01Z</time></trkpt><trkpt lat="44.14367495060544" lon="10.020258981820156"><ele>517.0</ele><time>2026-03-29T16:31:02Z</time></trkpt><trkpt lat="44.1435858217965" lon="10.020240756206071"><ele>517.0</ele><time>2026-03-29T16:31:03Z</time></trkpt><trkpt lat="44.14348908624688" lon="10.02023599362423"><ele>517.0</ele><time>2026-03-29T16:31:04Z</time></trkpt><trkpt lat="44.14338227038313" lon="10.02022732650752"><ele>517.0</ele><time>2026-03-29T16:31:05Z</time></trkpt><trkpt lat="44.143283313432434" lon="10.020220771879272"><ele>517.0</ele><time>2026-03-29T16:31:06Z</time></trkpt><trkpt lat="44.14319059458163" lon="10.020235255671459"><ele>517.0</ele><time>2026-03-29T16:31:07Z</time></trkpt><trkpt lat="44.14310221375365" lon="10.02027935705653"><ele>517.0</ele><time>2026-03-29T16:31:08Z</time></trkpt><trkpt lat="44.14301447321691" lon="10.020345433129684"><ele>515.25</ele><time>2026-03-29T16:31:09Z</time></trkpt><trkpt lat="44.14291646935133" lon="10.020435779080605"><ele>513.5</ele><time>2026-03-29T16:31:10Z</time></trkpt><trkpt lat="44.14282585122583" lon="10.020532641390144"><ele>511.75</ele><time>2026-03-29T16:31:11Z</time></trkpt><trkpt lat="44.14274708621272" lon="10.020640960400923"><ele>510.0</ele><time>2026-03-29T16:31:12Z</time></trkpt><trkpt lat="44.14268643217418" lon="10.02076872964212"><ele>512.75</ele><time>2026-03-29T16:31:13Z</time></trkpt><trkpt lat="44.142646890490056" lon="10.020914022794845"><ele>515.5</ele><time>2026-03-29T16:31:14Z</time></trkpt><trkpt lat="44.142628289008044" lon="10.021073720088902"><ele>518.25</ele><time>2026-03-29T16:31:15Z</time></trkpt><trkpt lat="44.14261940481039" lon="10.021261341881258"><ele>521.0</ele><time>2026-03-29T16:31:16Z</time></trkpt><trkpt lat="44.14260797588868" lon="10.021450464033633"><ele>521.0</ele><time>2026-03-29T16:31:17Z</time></trkpt><trkpt lat="44.142591689322344" lon="10.021617158618161"><ele>521.0</ele><time>2026-03-29T16:31:18Z</time></trkpt><trkpt lat="44.142558071111765" lon="10.021757792296897"><ele>521.0</ele><time>2026-03-29T16:31:19Z</time></trkpt><trkpt lat="44.14251903231871" lon="10.02185626184728"><ele>521.0</ele><time>2026-03-29T16:31:20Z</time></trkpt><trkpt lat="44.14244188504891" lon="10.021916489320166"><ele>521.0</ele><time>2026-03-29T16:31:21Z</time></trkpt><trkpt lat="44.142329893320934" lon="10.021972996760732"><ele>520.3333333333333</ele><time>2026-03-29T16:31:22Z</time></trkpt><trkpt lat="44.142199338837365" lon="10.02204105870405"><ele>519.6666666666666</ele><time>2026-03-29T16:31:23Z</time></trkpt><trkpt lat="44.14205770220811" lon="10.022125357270237"><ele>519.0</ele><time>2026-03-29T16:31:24Z</time></trkpt><trkpt lat="44.141912677071865" lon="10.022208502748757"><ele>519.0</ele><time>2026-03-29T16:31:25Z</time></trkpt><trkpt lat="44.14179709088978" lon="10.02227638587097"><ele>519.0</ele><time>2026-03-29T16:31:26Z</time></trkpt><trkpt lat="44.14170390888352" lon="10.022324257589066"><ele>519.0</ele><time>2026-03-29T16:31:27Z</time></trkpt><trkpt lat="44.14161986612958" lon="10.022325269907679"><ele>519.0</ele><time>2026-03-29T16:31:28Z</time></trkpt><trkpt lat="44.14153473079547" lon="10.022270141737296"><ele>519.0</ele><time>2026-03-29T16:31:29Z</time></trkpt><trkpt lat="44.14147523758755" lon="10.02216605321167"><ele>517.8</ele><time>2026-03-29T16:31:30Z</time></trkpt><trkpt lat="44.141417912426824" lon="10.022032147851625"><ele>516.5999999999999</ele><time>2026-03-29T16:31:31Z</time></trkpt><trkpt lat="44.14135116011832" lon="10.021931443780971"><ele>515.4</ele><time>2026-03-29T16:31:32Z</time></trkpt><trkpt lat="44.14127104137646" lon="10.021877779168946"><ele>514.1999999999999</ele><time>2026-03-29T16:31:33Z</time></trkpt><trkpt lat="44.14116203590663" lon="10.021850315035724"><ele>513.0</ele><time>2026-03-29T16:31:34Z</time></trkpt><trkpt lat="44.14103443355137" lon="10.02182415413435"><ele>513.0</ele><time>2026-03-29T16:31:35Z</time></trkpt><trkpt lat="44.14089977202706" lon="10.021798081044116"><ele>513.0</ele><time>2026-03-29T16:31:36Z</time></trkpt><trkpt lat="44.140782265328106" lon="10.021782080704922"><ele>513.0</ele><time>2026-03-29T16:31:37Z</time></trkpt><trkpt lat="44.14067411829873" lon="10.021796107149004"><ele>513.0</ele><time>2026-03-29T16:31:38Z</time></trkpt><trkpt lat="44.14056978381715" lon="10.021838398531626"><ele>510.59999999999997</ele><time>2026-03-29T16:31:39Z</time></trkpt><trkpt lat="44.14048245049219" lon="10.021915326401974"><ele>508.19999999999993</ele><time>2026-03-29T16:31:40Z</time></trkpt><trkpt lat="44.14041609780314" lon="10.022021173345449"><ele>505.8</ele><time>2026-03-29T16:31:41Z</time></trkpt><trkpt lat="44.14037377213664" lon="10.022148052934169"><ele>503.4</ele><time>2026-03-29T16:31:42Z</time></trkpt><trkpt lat="44.14032741824183" lon="10.022285777440327"><ele>501.0</ele><time>2026-03-29T16:31:43Z</time></trkpt><trkpt lat="44.14025578146831" lon="10.02239207686679"><ele>501.0</ele><time>2026-03-29T16:31:44Z</time></trkpt><trkpt lat="44.1401623076908" lon="10.022481010110017"><ele>501.0</ele><time>2026-03-29T16:31:45Z</time></trkpt><trkpt lat="44.14004423062826" lon="10.022554469746352"><ele>501.0</ele><time>2026-03-29T16:31:46Z</time></trkpt><trkpt lat="44.139908901800744" lon="10.022631302004106"><ele>501.0</ele><time>2026-03-29T16:31:47Z</time></trkpt><trkpt lat="44.1397597376685" lon="10.022701812139728"><ele>502.25</ele><time>2026-03-29T16:31:48Z</time></trkpt><trkpt lat="44.139606806730534" lon="10.022760854327998"><ele>503.5</ele><time>2026-03-29T16:31:49Z</time></trkpt><trkpt lat="44.13947368665691" lon="10.02280947824779"><ele>504.75</ele><time>2026-03-29T16:31:50Z</time></trkpt><trkpt lat="44.13935122732288" lon="10.022847848977097"><ele>506.0</ele><time>2026-03-29T16:31:51Z</time></trkpt><trkpt lat="44.13924508743573" lon="10.022887533508825"><ele>506.0</ele><time>2026-03-29T16:31:52Z</time></trkpt><trkpt lat="44.139151249310764" lon="10.022942619590037"><ele>506.0</ele><time>2026-03-29T16:31:53Z</time></trkpt><trkpt lat="44.139077368983806" lon="10.023015177165565"><ele>506.0</ele><time>2026-03-29T16:31:54Z</time></trkpt><trkpt lat="44.139011361268594" lon="10.023108786295243"><ele>506.0</ele><time>2026-03-29T16:31:55Z</time></trkpt><trkpt lat="44.138942744976255" lon="10.023228100380962"><ele>506.0</ele><time>2026-03-29T16:31:56Z</time></trkpt><trkpt lat="44.13887081017056" lon="10.023359199624148"><ele>507.0</ele><time>2026-03-29T16:31:57Z</time></trkpt><trkpt lat="44.13879655083788" lon="10.0234653182847"><ele>508.0</ele><time>2026-03-29T16:31:58Z</time></trkpt><trkpt lat="44.13870536583106" lon="10.023553757252024"><ele>509.0</ele><time>2026-03-29T16:31:58.999Z</time></trkpt><trkpt lat="44.138598892473155" lon="10.023607706165295"><ele>510.0</ele><time>2026-03-29T16:31:59.999Z</time></trkpt><trkpt lat="44.138479570145854" lon="10.02362530410967"><ele>510.0</ele><time>2026-03-29T16:32:00.999Z</time></trkpt><trkpt lat="44.13834539464826" lon="10.023623721619291"><ele>510.0</ele><time>2026-03-29T16:32:01.999Z</time></trkpt><trkpt lat="44.13819966186271" lon="10.023590616676843"><ele>510.0</ele><time>2026-03-29T16:32:02.999Z</time></trkpt><trkpt lat="44.13804702074228" lon="10.023536751511546"><ele>510.0</ele><time>2026-03-29T16:32:03.999Z</time></trkpt><trkpt lat="44.13790816554463" lon="10.023470353072556"><ele>506.25</ele><time>2026-03-29T16:32:04.999Z</time></trkpt><trkpt lat="44.13778709866568" lon="10.023404954137023"><ele>502.5</ele><time>2026-03-29T16:32:05.999Z</time></trkpt><trkpt lat="44.13768058007384" lon="10.023335306044888"><ele>498.75</ele><time>2026-03-29T16:32:06.999Z</time></trkpt><trkpt lat="44.137583547689424" lon="10.023257699998046"><ele>495.0</ele><time>2026-03-29T16:32:07.999Z</time></trkpt><trkpt lat="44.13749396164165" lon="10.023175965073278"><ele>494.6</ele><time>2026-03-29T16:32:08.999Z</time></trkpt><trkpt lat="44.13741658814077" lon="10.023105636009841"><ele>494.2</ele><time>2026-03-29T16:32:09.999Z</time></trkpt><trkpt lat="44.13735258569299" lon="10.023034434003904"><ele>493.79999999999995</ele><time>2026-03-29T16:32:10.999Z</time></trkpt><trkpt lat="44.13729613616164" lon="10.02297375414325"><ele>493.4</ele><time>2026-03-29T16:32:11.999Z</time></trkpt><trkpt lat="44.13721673170269" lon="10.022884189025161"><ele>493.0</ele><time>2026-03-29T16:32:13.999Z</time></trkpt><trkpt lat="44.137190822268686" lon="10.023098624970233"><ele>493.4</ele><time>2026-03-29T16:32:19.999Z</time></trkpt><trkpt lat="44.13727749361626" lon="10.023229983138759"><ele>493.79999999999995</ele><time>2026-03-29T16:32:21.999Z</time></trkpt><trkpt lat="44.137327550046514" lon="10.023296498520748"><ele>494.2</ele><time>2026-03-29T16:32:22.999Z</time></trkpt><trkpt lat="44.137386707796324" lon="10.023413431231365"><ele>494.6</ele><time>2026-03-29T16:32:24.999Z</time></trkpt><trkpt lat="44.137434695035964" lon="10.0235555288584"><ele>495.0</ele><time>2026-03-29T16:32:26.999Z</time></trkpt><trkpt lat="44.137483241526176" lon="10.023616551437732"><ele>495.0</ele><time>2026-03-29T16:32:27.999Z</time></trkpt><trkpt lat="44.137548144739924" lon="10.02373013111838"><ele>495.0</ele><time>2026-03-29T16:32:29.999Z</time></trkpt><trkpt lat="44.13761414132583" lon="10.023840291266234"><ele>495.0</ele><time>2026-03-29T16:32:31.999Z</time></trkpt><trkpt lat="44.137682389212536" lon="10.023954243846326"><ele>495.0</ele><time>2026-03-29T16:32:33.999Z</time></trkpt><trkpt lat="44.13775706769428" lon="10.024067302289264"><ele>495.0</ele><time>2026-03-29T16:32:35.999Z</time></trkpt><trkpt lat="44.137847108084024" lon="10.024161482362702"><ele>492.8333333333333</ele><time>2026-03-29T16:32:37.999Z</time></trkpt><trkpt lat="44.137898701142" lon="10.024219793632305"><ele>490.66666666666663</ele><time>2026-03-29T16:32:39.999Z</time></trkpt><trkpt lat="44.137928398616346" lon="10.024347668111568"><ele>488.5</ele><time>2026-03-29T16:32:42.999Z</time></trkpt><trkpt lat="44.13788484225829" lon="10.024518492057313"><ele>486.3333333333333</ele><time>2026-03-29T16:32:44.999Z</time></trkpt><trkpt lat="44.137870718232215" lon="10.02461406382189"><ele>484.16666666666663</ele><time>2026-03-29T16:32:45.999Z</time></trkpt><trkpt lat="44.13783324370989" lon="10.024704323322098"><ele>482.0</ele><time>2026-03-29T16:32:46.999Z</time></trkpt><trkpt lat="44.13779998238169" lon="10.02478915828034"><ele>482.0</ele><time>2026-03-29T16:32:47.999Z</time></trkpt><trkpt lat="44.13774321447537" lon="10.02492418058539"><ele>482.00000000000006</ele><time>2026-03-29T16:32:49.999Z</time></trkpt><trkpt lat="44.13770720114871" lon="10.025065820938577"><ele>482.00000000000006</ele><time>2026-03-29T16:32:51.999Z</time></trkpt><trkpt lat="44.13773231831693" lon="10.025176782284023"><ele>482.0</ele><time>2026-03-29T16:32:53.999Z</time></trkpt><trkpt lat="44.13778735739932" lon="10.025299051934883"><ele>482.0</ele><time>2026-03-29T16:32:55.999Z</time></trkpt><trkpt lat="44.137846250909455" lon="10.02533572993517"><ele>481.99999999999994</ele><time>2026-03-29T16:32:56.999Z</time></trkpt><trkpt lat="44.13788485769844" lon="10.025414114536526"><ele>482.0</ele><time>2026-03-29T16:32:57.999Z</time></trkpt><trkpt lat="44.13790248134612" lon="10.025509821181469"><ele>482.0</ele><time>2026-03-29T16:32:58.999Z</time></trkpt><trkpt lat="44.1378844312591" lon="10.025608196780881"><ele>482.0</ele><time>2026-03-29T16:32:59.999Z</time></trkpt><trkpt lat="44.137866703855664" lon="10.025693406814929"><ele>481.99999999999994</ele><time>2026-03-29T16:33:00.999Z</time></trkpt><trkpt lat="44.13784896448338" lon="10.025853177383704"><ele>482.0</ele><time>2026-03-29T16:33:02.999Z</time></trkpt><trkpt lat="44.13785489184534" lon="10.026030071161003"><ele>481.99999999999994</ele><time>2026-03-29T16:33:04.999Z</time></trkpt><trkpt lat="44.13788000618333" lon="10.026197369215666"><ele>482.0</ele><time>2026-03-29T16:33:07Z</time></trkpt><trkpt lat="44.137949707320004" lon="10.026272937380222"><ele>482.0</ele><time>2026-03-29T16:33:09Z</time></trkpt><trkpt lat="44.138036950969806" lon="10.02623090080321"><ele>482.0</ele><time>2026-03-29T16:33:11Z</time></trkpt><trkpt lat="44.13810270661731" lon="10.026199636623847"><ele>481.99999999999994</ele><time>2026-03-29T16:33:13Z</time></trkpt><trkpt lat="44.138132131572014" lon="10.026282587584221"><ele>482.0</ele><time>2026-03-29T16:33:16Z</time></trkpt><trkpt lat="44.138140503744566" lon="10.026424812475572"><ele>482.0</ele><time>2026-03-29T16:33:18Z</time></trkpt><trkpt lat="44.13814891243624" lon="10.026583248336367"><ele>482.00000000000006</ele><time>2026-03-29T16:33:20Z</time></trkpt><trkpt lat="44.13817200796212" lon="10.026710354125932"><ele>482.00000000000006</ele><time>2026-03-29T16:33:22Z</time></trkpt><trkpt lat="44.13815714673588" lon="10.026854188450713"><ele>482.0</ele><time>2026-03-29T16:33:24Z</time></trkpt><trkpt lat="44.138145448698296" lon="10.026988215093267"><ele>482.0</ele><time>2026-03-29T16:33:26Z</time></trkpt><trkpt lat="44.138119409954086" lon="10.027103954222042"><ele>483.20000000000005</ele><time>2026-03-29T16:33:28Z</time></trkpt><trkpt lat="44.13808497770455" lon="10.027232076531384"><ele>484.40000000000003</ele><time>2026-03-29T16:33:30Z</time></trkpt><trkpt lat="44.138045115277784" lon="10.02736282507727"><ele>485.59999999999997</ele><time>2026-03-29T16:33:32Z</time></trkpt><trkpt lat="44.13798747548476" lon="10.027440000177885"><ele>486.79999999999995</ele><time>2026-03-29T16:33:34Z</time></trkpt><trkpt lat="44.1379199001635" lon="10.027503449665158"><ele>488.0</ele><time>2026-03-29T16:33:36Z</time></trkpt><trkpt lat="44.13781239704525" lon="10.027475545140202"><ele>487.99999999999994</ele><time>2026-03-29T16:33:38Z</time></trkpt><trkpt lat="44.13772470288522" lon="10.027465487411146"><ele>488.0</ele><time>2026-03-29T16:33:40Z</time></trkpt><trkpt lat="44.13764204814645" lon="10.027530773623148"><ele>488.0</ele><time>2026-03-29T16:33:42Z</time></trkpt><trkpt lat="44.13756755326445" lon="10.027654627682653"><ele>488.0</ele><time>2026-03-29T16:33:44Z</time></trkpt><trkpt lat="44.137520013797825" lon="10.027714773935958"><ele>487.99999999999994</ele><time>2026-03-29T16:33:45Z</time></trkpt><trkpt lat="44.13747884012979" lon="10.027789278340391"><ele>488.0</ele><time>2026-03-29T16:33:46Z</time></trkpt><trkpt lat="44.137402083533836" lon="10.027923933982747"><ele>489.0</ele><time>2026-03-29T16:33:48Z</time></trkpt><trkpt lat="44.13731371514364" lon="10.028031817425633"><ele>489.99999999999994</ele><time>2026-03-29T16:33:50Z</time></trkpt><trkpt lat="44.13723838447489" lon="10.028131663722318"><ele>490.99999999999994</ele><time>2026-03-29T16:33:52Z</time></trkpt><trkpt lat="44.13721876699799" lon="10.028228341504663"><ele>492.0</ele><time>2026-03-29T16:33:54Z</time></trkpt><trkpt lat="44.13725078263709" lon="10.028340362311557"><ele>493.0</ele><time>2026-03-29T16:33:56Z</time></trkpt><trkpt lat="44.13721044432287" lon="10.02821333512785"><ele>493.0</ele><time>2026-03-29T17:09:29Z</time></trkpt><trkpt lat="44.137268021055" lon="10.028124742249016"><ele>492.99999999999994</ele><time>2026-03-29T17:09:31Z</time></trkpt><trkpt lat="44.13735955211432" lon="10.028030624922291"><ele>492.99999999999994</ele><time>2026-03-29T17:09:33Z</time></trkpt><trkpt lat="44.13741117025045" lon="10.02797053006226"><ele>493.0</ele><time>2026-03-29T17:09:34Z</time></trkpt><trkpt lat="44.13749082982106" lon="10.027844978407751"><ele>493.0</ele><time>2026-03-29T17:09:36Z</time></trkpt><trkpt lat="44.13753547070421" lon="10.027729903568414"><ele>492.1666666666667</ele><time>2026-03-29T17:09:38Z</time></trkpt><trkpt lat="44.13758121882897" lon="10.027652361549993"><ele>491.33333333333337</ele><time>2026-03-29T17:09:40Z</time></trkpt><trkpt lat="44.13765019071501" lon="10.027572891774245"><ele>490.5</ele><time>2026-03-29T17:09:41.999Z</time></trkpt><trkpt lat="44.13771485255696" lon="10.02748895311029"><ele>489.66666666666663</ele><time>2026-03-29T17:09:43.999Z</time></trkpt><trkpt lat="44.13778660490099" lon="10.02745827998248"><ele>488.8333333333333</ele><time>2026-03-29T17:09:45.999Z</time></trkpt><trkpt lat="44.137801977475796" lon="10.02756399106883"><ele>488.0</ele><time>2026-03-29T17:09:46.999Z</time></trkpt><trkpt lat="44.13787954224019" lon="10.027578241816755"><ele>487.99999999999994</ele><time>2026-03-29T17:09:48.999Z</time></trkpt><trkpt lat="44.13796316231956" lon="10.027532835730387"><ele>488.0</ele><time>2026-03-29T17:09:50.999Z</time></trkpt><trkpt lat="44.13802704405326" lon="10.027518985480873"><ele>488.0</ele><time>2026-03-29T17:09:52.999Z</time></trkpt><trkpt lat="44.138065723100055" lon="10.02741082632381"><ele>488.0</ele><time>2026-03-29T17:09:55.999Z</time></trkpt><trkpt lat="44.13807383698524" lon="10.027320242238066"><ele>487.99999999999994</ele><time>2026-03-29T17:09:57.999Z</time></trkpt><trkpt lat="44.138102948466425" lon="10.027233373295118"><ele>488.0</ele><time>2026-03-29T17:09:59.999Z</time></trkpt><trkpt lat="44.138154783100106" lon="10.027140479066054"><ele>488.0</ele><time>2026-03-29T17:10:01.999Z</time></trkpt><trkpt lat="44.138190950621585" lon="10.027003700782123"><ele>487.99999999999994</ele><time>2026-03-29T17:10:03.999Z</time></trkpt><trkpt lat="44.13818576512478" lon="10.026848908598298"><ele>487.99999999999994</ele><time>2026-03-29T17:10:05.999Z</time></trkpt><trkpt lat="44.138192904574694" lon="10.026729992327594"><ele>488.0</ele><time>2026-03-29T17:10:07.999Z</time></trkpt><trkpt lat="44.13819181763691" lon="10.026628944225052"><ele>488.0</ele><time>2026-03-29T17:10:09.999Z</time></trkpt><trkpt lat="44.138190501924" lon="10.026506627122608"><ele>486.79999999999995</ele><time>2026-03-29T17:10:12.999Z</time></trkpt><trkpt lat="44.13817621087844" lon="10.026360236647783"><ele>485.59999999999997</ele><time>2026-03-29T17:10:14.999Z</time></trkpt><trkpt lat="44.138061706445136" lon="10.026161276414008"><ele>484.40000000000003</ele><time>2026-03-29T17:10:20.999Z</time></trkpt><trkpt lat="44.13800114500876" lon="10.026211116176441"><ele>483.20000000000005</ele><time>2026-03-29T17:10:21.999Z</time></trkpt><trkpt lat="44.13791317122195" lon="10.026206888751533"><ele>482.0</ele><time>2026-03-29T17:10:26.999Z</time></trkpt><trkpt lat="44.13789790542513" lon="10.0260494148169"><ele>481.99999999999994</ele><time>2026-03-29T17:10:28.999Z</time></trkpt><trkpt lat="44.137881830498905" lon="10.025877278448064"><ele>482.0</ele><time>2026-03-29T17:10:30.999Z</time></trkpt><trkpt lat="44.13789428503732" lon="10.025779281949026"><ele>482.0</ele><time>2026-03-29T17:10:31.999Z</time></trkpt><trkpt lat="44.13792130784635" lon="10.025674109863878"><ele>482.0</ele><time>2026-03-29T17:10:32.999Z</time></trkpt><trkpt lat="44.137947984687095" lon="10.025572731641445"><ele>481.99999999999994</ele><time>2026-03-29T17:10:33.999Z</time></trkpt><trkpt lat="44.1379257067889" lon="10.02548342376317"><ele>482.0</ele><time>2026-03-29T17:10:34.999Z</time></trkpt><trkpt lat="44.13790692519947" lon="10.025393909444253"><ele>481.99999999999994</ele><time>2026-03-29T17:10:35.999Z</time></trkpt><trkpt lat="44.13785952015788" lon="10.025319981344943"><ele>482.0</ele><time>2026-03-29T17:10:36.999Z</time></trkpt><trkpt lat="44.13780497460162" lon="10.025256783461224"><ele>482.0</ele><time>2026-03-29T17:10:37.999Z</time></trkpt><trkpt lat="44.13774606408069" lon="10.025159820522454"><ele>482.0</ele><time>2026-03-29T17:10:39.999Z</time></trkpt><trkpt lat="44.137778922973226" lon="10.025014413587032"><ele>481.99999999999994</ele><time>2026-03-29T17:10:41.999Z</time></trkpt><trkpt lat="44.13780337259858" lon="10.024930238836918"><ele>482.0</ele><time>2026-03-29T17:10:42.999Z</time></trkpt><trkpt lat="44.13782742168851" lon="10.024844939711835"><ele>482.0</ele><time>2026-03-29T17:10:43.999Z</time></trkpt><trkpt lat="44.13789710121558" lon="10.024697191755566"><ele>482.0</ele><time>2026-03-29T17:10:45.999Z</time></trkpt><trkpt lat="44.13794460453146" lon="10.024544885814757"><ele>482.0</ele><time>2026-03-29T17:10:47.999Z</time></trkpt><trkpt lat="44.13796562440283" lon="10.024377644469887"><ele>482.0</ele><time>2026-03-29T17:10:49.999Z</time></trkpt><trkpt lat="44.137961324461465" lon="10.024250371531338"><ele>482.0</ele><time>2026-03-29T17:10:52Z</time></trkpt><trkpt lat="44.13790490598224" lon="10.024158371346847"><ele>482.00000000000006</ele><time>2026-03-29T17:10:54Z</time></trkpt><trkpt lat="44.13782019088645" lon="10.024084326378157"><ele>482.00000000000006</ele><time>2026-03-29T17:10:56Z</time></trkpt><trkpt lat="44.137740065275274" lon="10.0239886270076"><ele>482.0</ele><time>2026-03-29T17:10:58Z</time></trkpt><trkpt lat="44.137648751369234" lon="10.02387540144295"><ele>482.0</ele><time>2026-03-29T17:11:00Z</time></trkpt><trkpt lat="44.137604424875576" lon="10.023810580682778"><ele>483.75</ele><time>2026-03-29T17:11:01Z</time></trkpt><trkpt lat="44.13752466469542" lon="10.023675047309444"><ele>485.5</ele><time>2026-03-29T17:11:03Z</time></trkpt><trkpt lat="44.13745392170931" lon="10.023544149482253"><ele>487.25</ele><time>2026-03-29T17:11:05Z</time></trkpt><trkpt lat="44.13739805603959" lon="10.023410768760852"><ele>489.0</ele><time>2026-03-29T17:11:07Z</time></trkpt><trkpt lat="44.13733696034287" lon="10.023297658497736"><ele>489.0</ele><time>2026-03-29T17:11:09Z</time></trkpt><trkpt lat="44.13728411287483" lon="10.023166801826365"><ele>489.0</ele><time>2026-03-29T17:11:11Z</time></trkpt><trkpt lat="44.13721415803646" lon="10.02305776721388"><ele>489.0</ele><time>2026-03-29T17:11:13Z</time></trkpt><trkpt lat="44.13714610654224" lon="10.022977397301153"><ele>489.0</ele><time>2026-03-29T17:11:16Z</time></trkpt><trkpt lat="44.13722251475667" lon="10.022968502187611"><ele>489.0</ele><time>2026-03-29T17:11:20Z</time></trkpt><trkpt lat="44.13732098827175" lon="10.022949795253151"><ele>489.79999999999995</ele><time>2026-03-29T17:11:21Z</time></trkpt><trkpt lat="44.137392136796144" lon="10.022904834462764"><ele>490.59999999999997</ele><time>2026-03-29T17:11:22Z</time></trkpt><trkpt lat="44.13748907364644" lon="10.022859811972056"><ele>491.4</ele><time>2026-03-29T17:11:23Z</time></trkpt><trkpt lat="44.13760485411824" lon="10.022807570466547"><ele>492.2</ele><time>2026-03-29T17:11:24Z</time></trkpt><trkpt lat="44.13770776775677" lon="10.022734893142225"><ele>493.0</ele><time>2026-03-29T17:11:25Z</time></trkpt><trkpt lat="44.13780831956323" lon="10.022663518834689"><ele>493.0</ele><time>2026-03-29T17:11:26Z</time></trkpt><trkpt lat="44.13790604488039" lon="10.022594946880455"><ele>492.99999999999994</ele><time>2026-03-29T17:11:27Z</time></trkpt><trkpt lat="44.138004548946554" lon="10.022526268021435"><ele>492.99999999999994</ele><time>2026-03-29T17:11:28Z</time></trkpt><trkpt lat="44.13810115501262" lon="10.022459230494475"><ele>493.0</ele><time>2026-03-29T17:11:29Z</time></trkpt><trkpt lat="44.13819587794403" lon="10.022394538662747"><ele>493.0</ele><time>2026-03-29T17:11:30Z</time></trkpt><trkpt lat="44.138287178698015" lon="10.022316081436845"><ele>491.0</ele><time>2026-03-29T17:11:31Z</time></trkpt><trkpt lat="44.138359318754084" lon="10.022210698994913"><ele>488.99999999999994</ele><time>2026-03-29T17:11:32Z</time></trkpt><trkpt lat="44.1384076806826" lon="10.02207761090675"><ele>486.99999999999994</ele><time>2026-03-29T17:11:33Z</time></trkpt><trkpt lat="44.13844187136037" lon="10.021925505634991"><ele>485.0</ele><time>2026-03-29T17:11:34Z</time></trkpt><trkpt lat="44.13845637186977" lon="10.021756226480429"><ele>483.0</ele><time>2026-03-29T17:11:35Z</time></trkpt><trkpt lat="44.13846512026747" lon="10.021581124901836"><ele>480.75</ele><time>2026-03-29T17:11:36Z</time></trkpt><trkpt lat="44.1384607111892" lon="10.021402391624394"><ele>478.5</ele><time>2026-03-29T17:11:37Z</time></trkpt><trkpt lat="44.1384694667996" lon="10.02123699808341"><ele>476.25</ele><time>2026-03-29T17:11:38Z</time></trkpt><trkpt lat="44.13849327784045" lon="10.02108296267607"><ele>474.0</ele><time>2026-03-29T17:11:39Z</time></trkpt><trkpt lat="44.138536891068185" lon="10.020946945018228"><ele>474.0</ele><time>2026-03-29T17:11:40Z</time></trkpt><trkpt lat="44.13859252175574" lon="10.020821406224725"><ele>474.0</ele><time>2026-03-29T17:11:41Z</time></trkpt><trkpt lat="44.13868511724931" lon="10.02069926885617"><ele>474.0</ele><time>2026-03-29T17:11:42Z</time></trkpt><trkpt lat="44.13879357798473" lon="10.020569988945683"><ele>474.0</ele><time>2026-03-29T17:11:43Z</time></trkpt><trkpt lat="44.13891833532883" lon="10.020431745077053"><ele>473.75</ele><time>2026-03-29T17:11:43.999Z</time></trkpt><trkpt lat="44.139030402902414" lon="10.020301791943233"><ele>473.5</ele><time>2026-03-29T17:11:44.999Z</time></trkpt><trkpt lat="44.13913390483132" lon="10.020189112544353"><ele>473.25</ele><time>2026-03-29T17:11:45.999Z</time></trkpt><trkpt lat="44.13922780624428" lon="10.020081295959455"><ele>473.0</ele><time>2026-03-29T17:11:46.999Z</time></trkpt><trkpt lat="44.139322417989106" lon="10.019989284690963"><ele>468.0</ele><time>2026-03-29T17:11:47.999Z</time></trkpt><trkpt lat="44.13943166264667" lon="10.01991838760491"><ele>463.0</ele><time>2026-03-29T17:11:48.999Z</time></trkpt><trkpt lat="44.139566720446204" lon="10.019875219600525"><ele>458.0</ele><time>2026-03-29T17:11:49.999Z</time></trkpt><trkpt lat="44.13972603164789" lon="10.019833268203744"><ele>453.0</ele><time>2026-03-29T17:11:50.999Z</time></trkpt><trkpt lat="44.13988118984199" lon="10.019797198550103"><ele>454.5</ele><time>2026-03-29T17:11:51.999Z</time></trkpt><trkpt lat="44.14001558602399" lon="10.019740003144488"><ele>456.0</ele><time>2026-03-29T17:11:52.999Z</time></trkpt><trkpt lat="44.14012969591812" lon="10.019674562766632"><ele>457.5</ele><time>2026-03-29T17:11:53.999Z</time></trkpt><trkpt lat="44.14022575198019" lon="10.019605498053044"><ele>459.0</ele><time>2026-03-29T17:11:54.999Z</time></trkpt><trkpt lat="44.14030717602654" lon="10.019529478665074"><ele>459.0</ele><time>2026-03-29T17:11:55.999Z</time></trkpt><trkpt lat="44.14036894268997" lon="10.019437273697152"><ele>459.0</ele><time>2026-03-29T17:11:56.999Z</time></trkpt><trkpt lat="44.140412961270826" lon="10.019329123649422"><ele>459.0</ele><time>2026-03-29T17:11:57.999Z</time></trkpt><trkpt lat="44.14042541405099" lon="10.01920040503579"><ele>459.0</ele><time>2026-03-29T17:11:58.999Z</time></trkpt><trkpt lat="44.14042111949445" lon="10.01905668898747"><ele>459.0</ele><time>2026-03-29T17:11:59.999Z</time></trkpt><trkpt lat="44.140444209881025" lon="10.018906926441076"><ele>456.75</ele><time>2026-03-29T17:12:00.999Z</time></trkpt><trkpt lat="44.14049905447764" lon="10.018763426067462"><ele>454.5</ele><time>2026-03-29T17:12:01.999Z</time></trkpt><trkpt lat="44.14057915429355" lon="10.018632493150358"><ele>452.25</ele><time>2026-03-29T17:12:02.999Z</time></trkpt><trkpt lat="44.14063930960165" lon="10.018491555578649"><ele>450.0</ele><time>2026-03-29T17:12:03.999Z</time></trkpt><trkpt lat="44.14066725059542" lon="10.018327713562327"><ele>449.75</ele><time>2026-03-29T17:12:04.999Z</time></trkpt><trkpt lat="44.14065868952448" lon="10.0181642213726"><ele>449.5</ele><time>2026-03-29T17:12:05.999Z</time></trkpt><trkpt lat="44.14061391254772" lon="10.01802259229901"><ele>449.25</ele><time>2026-03-29T17:12:06.999Z</time></trkpt><trkpt lat="44.14054471973358" lon="10.017890869657771"><ele>449.0</ele><time>2026-03-29T17:12:07.999Z</time></trkpt><trkpt lat="44.140446456196806" lon="10.017761872231526"><ele>449.0</ele><time>2026-03-29T17:12:08.999Z</time></trkpt><trkpt lat="44.140356448761494" lon="10.017625650991427"><ele>449.0</ele><time>2026-03-29T17:12:09.999Z</time></trkpt><trkpt lat="44.140284543324974" lon="10.017511619254986"><ele>449.0</ele><time>2026-03-29T17:12:10.999Z</time></trkpt><trkpt lat="44.14022757327079" lon="10.017391278057648"><ele>449.0</ele><time>2026-03-29T17:12:11.999Z</time></trkpt><trkpt lat="44.14019802242601" lon="10.017260256159249"><ele>449.0</ele><time>2026-03-29T17:12:12.999Z</time></trkpt><trkpt lat="44.140189657526854" lon="10.01713501512189"><ele>448.0</ele><time>2026-03-29T17:12:13.999Z</time></trkpt><trkpt lat="44.140190993356484" lon="10.017002765826984"><ele>447.0</ele><time>2026-03-29T17:12:14.999Z</time></trkpt><trkpt lat="44.14022068319733" lon="10.016875273015017"><ele>446.0</ele><time>2026-03-29T17:12:15.999Z</time></trkpt><trkpt lat="44.14027437632005" lon="10.016776712363825"><ele>445.0</ele><time>2026-03-29T17:12:16.999Z</time></trkpt><trkpt lat="44.1403459461958" lon="10.01668531545354"><ele>444.0</ele><time>2026-03-29T17:12:17.999Z</time></trkpt><trkpt lat="44.14041152931132" lon="10.016577144837942"><ele>443.2</ele><time>2026-03-29T17:12:18.999Z</time></trkpt><trkpt lat="44.14044946894866" lon="10.016456918111711"><ele>442.4</ele><time>2026-03-29T17:12:19.999Z</time></trkpt><trkpt lat="44.14046787241262" lon="10.016319969335125"><ele>441.6</ele><time>2026-03-29T17:12:20.999Z</time></trkpt><trkpt lat="44.140465773807506" lon="10.01617356546048"><ele>440.8</ele><time>2026-03-29T17:12:21.999Z</time></trkpt><trkpt lat="44.1404376471877" lon="10.016027740245493"><ele>440.0</ele><time>2026-03-29T17:12:22.999Z</time></trkpt><trkpt lat="44.14040553462967" lon="10.015891395003532"><ele>438.2</ele><time>2026-03-29T17:12:23.999Z</time></trkpt><trkpt lat="44.14038938531762" lon="10.015760661761293"><ele>436.4</ele><time>2026-03-29T17:12:24.999Z</time></trkpt><trkpt lat="44.140358561438774" lon="10.015645581088386"><ele>434.6</ele><time>2026-03-29T17:12:25.999Z</time></trkpt><trkpt lat="44.140348233383975" lon="10.015520386996263"><ele>432.8</ele><time>2026-03-29T17:12:26.999Z</time></trkpt><trkpt lat="44.14037152084739" lon="10.015400188599493"><ele>431.0</ele><time>2026-03-29T17:12:27.999Z</time></trkpt><trkpt lat="44.14041077169439" lon="10.015266177405438"><ele>431.0</ele><time>2026-03-29T17:12:28.999Z</time></trkpt><trkpt lat="44.140465552125576" lon="10.015127953225093"><ele>431.0</ele><time>2026-03-29T17:12:29.999Z</time></trkpt><trkpt lat="44.140520642940686" lon="10.014979676307604"><ele>431.0</ele><time>2026-03-29T17:12:30.999Z</time></trkpt><trkpt lat="44.14058111718238" lon="10.014829278901317"><ele>431.0</ele><time>2026-03-29T17:12:31.999Z</time></trkpt><trkpt lat="44.14064252912824" lon="10.01468571181645"><ele>431.20000000000005</ele><time>2026-03-29T17:12:32.999Z</time></trkpt><trkpt lat="44.14070709920039" lon="10.014562350100167"><ele>431.40000000000003</ele><time>2026-03-29T17:12:33.999Z</time></trkpt><trkpt lat="44.140775843511044" lon="10.014447008974004"><ele>431.6</ele><time>2026-03-29T17:12:34.999Z</time></trkpt><trkpt lat="44.14081315472147" lon="10.014300753318132"><ele>431.8</ele><time>2026-03-29T17:12:35.999Z</time></trkpt><trkpt lat="44.14084700975707" lon="10.014145971724357"><ele>432.0</ele><time>2026-03-29T17:12:36.999Z</time></trkpt><trkpt lat="44.14086224657594" lon="10.01396799944022"><ele>428.66666666666663</ele><time>2026-03-29T17:12:37.999Z</time></trkpt><trkpt lat="44.1408792525978" lon="10.013760683816532"><ele>425.3333333333333</ele><time>2026-03-29T17:12:38.999Z</time></trkpt><trkpt lat="44.14088477750929" lon="10.01353398174905"><ele>422.0</ele><time>2026-03-29T17:12:39.999Z</time></trkpt><trkpt lat="44.140889346177445" lon="10.01332785857909"><ele>419.5</ele><time>2026-03-29T17:12:40.999Z</time></trkpt><trkpt lat="44.1409102105265" lon="10.013131004519565"><ele>417.0</ele><time>2026-03-29T17:12:41.999Z</time></trkpt><trkpt lat="44.140934037667016" lon="10.0129430325533"><ele>414.5</ele><time>2026-03-29T17:12:42.999Z</time></trkpt><trkpt lat="44.14099448471192" lon="10.012747388448098"><ele>412.0</ele><time>2026-03-29T17:12:43.999Z</time></trkpt><trkpt lat="44.14104898571979" lon="10.012564638670385"><ele>410.75</ele><time>2026-03-29T17:12:44.999Z</time></trkpt><trkpt lat="44.141077069879564" lon="10.012401960283203"><ele>409.5</ele><time>2026-03-29T17:12:45.999Z</time></trkpt><trkpt lat="44.14109341599503" lon="10.012245734525289"><ele>408.25</ele><time>2026-03-29T17:12:46.999Z</time></trkpt><trkpt lat="44.14110312522169" lon="10.01209263860606"><ele>407.0</ele><time>2026-03-29T17:12:47.999Z</time></trkpt><trkpt lat="44.14109389760402" lon="10.01194350795039"><ele>407.0</ele><time>2026-03-29T17:12:48.999Z</time></trkpt><trkpt lat="44.141066653540335" lon="10.011778891081772"><ele>407.0</ele><time>2026-03-29T17:12:49.999Z</time></trkpt><trkpt lat="44.14103268252668" lon="10.011597254850122"><ele>407.0</ele><time>2026-03-29T17:12:50.999Z</time></trkpt><trkpt lat="44.140993975949364" lon="10.011411839650911"><ele>407.0</ele><time>2026-03-29T17:12:51.999Z</time></trkpt><trkpt lat="44.14096269886456" lon="10.011247308644377"><ele>406.75</ele><time>2026-03-29T17:12:52.999Z</time></trkpt><trkpt lat="44.14092896329471" lon="10.011094954611195"><ele>406.5</ele><time>2026-03-29T17:12:53.999Z</time></trkpt><trkpt lat="44.14089474993829" lon="10.010936169580228"><ele>406.25</ele><time>2026-03-29T17:12:54.999Z</time></trkpt><trkpt lat="44.14085544303106" lon="10.010774605568947"><ele>406.0</ele><time>2026-03-29T17:12:55.999Z</time></trkpt><trkpt lat="44.140762406869676" lon="10.010642361525477"><ele>402.25</ele><time>2026-03-29T17:12:56.999Z</time></trkpt><trkpt lat="44.140673312974315" lon="10.010506393218723"><ele>398.5</ele><time>2026-03-29T17:12:58Z</time></trkpt><trkpt lat="44.140568987565956" lon="10.010380571400638"><ele>394.75</ele><time>2026-03-29T17:12:59Z</time></trkpt><trkpt lat="44.140479182989445" lon="10.010261839656051"><ele>391.0</ele><time>2026-03-29T17:13:00Z</time></trkpt><trkpt lat="44.14040474752767" lon="10.010105098561501"><ele>391.8</ele><time>2026-03-29T17:13:01Z</time></trkpt><trkpt lat="44.14033720687787" lon="10.009952673363479"><ele>392.6</ele><time>2026-03-29T17:13:02Z</time></trkpt><trkpt lat="44.14029230347057" lon="10.009803772177412"><ele>393.4</ele><time>2026-03-29T17:13:03Z</time></trkpt><trkpt lat="44.140266548151324" lon="10.009668143986913"><ele>394.2</ele><time>2026-03-29T17:13:04Z</time></trkpt><trkpt lat="44.14023778965645" lon="10.009556665399586"><ele>395.0</ele><time>2026-03-29T17:13:05Z</time></trkpt><trkpt lat="44.14019456834973" lon="10.00946253821282"><ele>394.99999999999994</ele><time>2026-03-29T17:13:06Z</time></trkpt><trkpt lat="44.14013156092308" lon="10.009379497988391"><ele>395.0</ele><time>2026-03-29T17:13:07Z</time></trkpt><trkpt lat="44.14006352399659" lon="10.009313976833578"><ele>395.0</ele><time>2026-03-29T17:13:08Z</time></trkpt><trkpt lat="44.139991590781406" lon="10.009252828829277"><ele>395.0</ele><time>2026-03-29T17:13:09Z</time></trkpt><trkpt lat="44.13992412624539" lon="10.009200796868717"><ele>394.99999999999994</ele><time>2026-03-29T17:13:10Z</time></trkpt><trkpt lat="44.139865626251115" lon="10.009145263265868"><ele>395.0</ele><time>2026-03-29T17:13:11Z</time></trkpt><trkpt lat="44.13981773752027" lon="10.00908683864436"><ele>393.2</ele><time>2026-03-29T17:13:12Z</time></trkpt><trkpt lat="44.13973603544919" lon="10.008988345398418"><ele>391.4</ele><time>2026-03-29T17:13:14Z</time></trkpt><trkpt lat="44.139646228231385" lon="10.008841187699312"><ele>389.6</ele><time>2026-03-29T17:13:16Z</time></trkpt><trkpt lat="44.13959492904404" lon="10.008758296129992"><ele>387.8</ele><time>2026-03-29T17:13:18Z</time></trkpt><trkpt lat="44.13960143383065" lon="10.008850030120634"><ele>386.0</ele><time>2026-03-29T17:13:25Z</time></trkpt><trkpt lat="44.1396671397528" lon="10.00892635501555"><ele>386.0</ele><time>2026-03-29T17:13:28Z</time></trkpt><trkpt lat="44.139586110581696" lon="10.009035761297216"><ele>386.0</ele><time>2026-03-29T17:13:29Z</time></trkpt><trkpt lat="44.13961185901954" lon="10.009121934441714"><ele>386.0</ele><time>2026-03-29T17:13:31Z</time></trkpt><trkpt lat="44.13983891098119" lon="10.009198690123153"><ele>386.0</ele><time>2026-03-29T17:19:29Z</time></trkpt><trkpt lat="44.139869832613876" lon="10.009280233703386"><ele>387.49999999999994</ele><time>2026-03-29T17:21:18.999Z</time></trkpt><trkpt lat="44.13987926533845" lon="10.009376690182755"><ele>389.0</ele><time>2026-03-29T17:21:39Z</time></trkpt><trkpt lat="44.13989445577383" lon="10.009465318762198"><ele>390.5</ele><time>2026-03-29T17:21:44Z</time></trkpt><trkpt lat="44.1399529804126" lon="10.009600734834383"><ele>392.0</ele><time>2026-03-29T17:21:48Z</time></trkpt><trkpt lat="44.13998678903157" lon="10.009737379144406"><ele>393.49999999999994</ele><time>2026-03-29T17:21:50Z</time></trkpt><trkpt lat="44.1400182629183" lon="10.009838027309788"><ele>395.0</ele><time>2026-03-29T17:21:51Z</time></trkpt><trkpt lat="44.14005718768815" lon="10.009917250107478"><ele>395.0</ele><time>2026-03-29T17:21:54Z</time></trkpt><trkpt lat="44.13995596648829" lon="10.009797067256427"><ele>395.0</ele><time>2026-03-29T17:22:02Z</time></trkpt><trkpt lat="44.139921664090046" lon="10.009712769966752"><ele>395.0</ele><time>2026-03-29T17:22:05Z</time></trkpt><trkpt lat="44.13989778001592" lon="10.009547467008632"><ele>395.0</ele><time>2026-03-29T17:22:06Z</time></trkpt><trkpt lat="44.13988969434089" lon="10.009451888434592"><ele>395.0</ele><time>2026-03-29T17:22:08Z</time></trkpt><trkpt lat="44.1399092482357" lon="10.009365969420134"><ele>395.0</ele><time>2026-03-29T17:22:10Z</time></trkpt><trkpt lat="44.13991149244471" lon="10.009249616647745"><ele>395.0</ele><time>2026-03-29T17:22:23.999Z</time></trkpt><trkpt lat="44.13995919732995" lon="10.00930694507658"><ele>395.0</ele><time>2026-03-29T17:22:28.999Z</time></trkpt><trkpt lat="44.13989172403332" lon="10.009293078595805"><ele>395.0</ele><time>2026-03-29T17:22:56.999Z</time></trkpt><trkpt lat="44.139932340380746" lon="10.00937084007537"><ele>395.0</ele><time>2026-03-29T17:23:37Z</time></trkpt><trkpt lat="44.13985781509293" lon="10.009305780329319"><ele>395.0</ele><time>2026-03-29T17:24:42.999Z</time></trkpt><trkpt lat="44.13979276187898" lon="10.009300105012539"><ele>395.0</ele><time>2026-03-29T17:24:43.999Z</time></trkpt><trkpt lat="44.13974561391198" lon="10.009370473640136"><ele>395.0</ele><time>2026-03-29T17:24:46.999Z</time></trkpt><trkpt lat="44.1396524403767" lon="10.009443944651583"><ele>395.0</ele><time>2026-03-29T17:24:48.999Z</time></trkpt><trkpt lat="44.13979306772118" lon="10.009296331594953"><ele>395.0</ele><time>2026-03-29T17:24:52.999Z</time></trkpt><trkpt lat="44.1403158248722" lon="10.009797424203178"><ele>395.0</ele><time>2026-03-29T17:25:37.035Z</time></trkpt><trkpt lat="44.14031109564204" lon="10.009565880406377"><ele>395.0</ele><time>2026-03-29T17:25:39.032Z</time></trkpt><trkpt lat="44.140293253748204" lon="10.009382921316602"><ele>395.0</ele><time>2026-03-29T17:25:43.022Z</time></trkpt><trkpt lat="44.14022269595466" lon="10.009282980062785"><ele>395.0</ele><time>2026-03-29T17:25:48.999Z</time></trkpt><trkpt lat="44.14016984034173" lon="10.009341086079981"><ele>395.0</ele><time>2026-03-29T17:25:54.018Z</time></trkpt><trkpt lat="44.1401067498154" lon="10.009363194194348"><ele>395.0</ele><time>2026-03-29T17:26:05.019Z</time></trkpt><trkpt lat="44.13999470002099" lon="10.009367795320628"><ele>395.0</ele><time>2026-03-29T17:26:22.02Z</time></trkpt><trkpt lat="44.13993096642645" lon="10.009369851051034"><ele>395.0</ele><time>2026-03-29T17:26:34.018Z</time></trkpt><trkpt lat="44.139815927273816" lon="10.009332003654462"><ele>395.0</ele><time>2026-03-29T17:26:41.019Z</time></trkpt><trkpt lat="44.13997030923665" lon="10.00938108252285"><ele>395.0</ele><time>2026-03-29T17:27:13.01Z</time></trkpt><trkpt lat="44.139998775596695" lon="10.009302190202524"><ele>395.0</ele><time>2026-03-29T17:30:02.013Z</time></trkpt><trkpt lat="44.13992971990082" lon="10.009257545070074"><ele>395.0</ele><time>2026-03-29T17:30:08.012Z</time></trkpt><trkpt lat="44.13981045048466" lon="10.00937925216069"><ele>395.0</ele><time>2026-03-29T17:32:17.013Z</time></trkpt><trkpt lat="44.13988008918522" lon="10.009411327886163"><ele>395.0</ele><time>2026-03-29T17:32:50.013Z</time></trkpt><trkpt lat="44.13985975584137" lon="10.00928295336387"><ele>370.0</ele><time>2026-03-29T17:32:57.011Z</time></trkpt><trkpt lat="44.13991248939927" lon="10.009341797589004"><ele>395.0</ele><time>2026-03-29T17:33:30.013Z</time></trkpt><trkpt lat="44.13993219733435" lon="10.009249920647903"><ele>395.0</ele><time>2026-03-29T17:34:16.013Z</time></trkpt><trkpt lat="44.13996489615131" lon="10.009325325463482"><ele>395.0</ele><time>2026-03-29T17:35:56.012Z</time></trkpt><trkpt lat="44.1399017405887" lon="10.009389145464631"><ele>395.0</ele><time>2026-03-29T17:35:58.012Z</time></trkpt></trkseg></trk></gpx>